Observation data for Sierra Blanca on 08/14/2019      Previous  Date  Next       Current Mesonet Observations  Soil Data  Daily Summary Page  Observations in Plain Language
KSB1 140500Z 13002KT 26/14 A3019 RMK A01 T02580138  RH  047%=      5-min Rain = 0
KSB1 140501Z 12003KT 26/14 A3019 RMK A01 T02580138  RH  047%=      5-min Rain = 0
KSB1 140502Z 11003KT 26/14 A3019 RMK A01 T02580137  RH  047%=      5-min Rain = 0
KSB1 140503Z 09002KT 26/14 A3019 RMK A01 T02580138  RH  047%=      5-min Rain = 0
KSB1 140504Z 08002KT 26/14 A3019 RMK A01 T02580138  RH  048%=      5-min Rain = 0
KSB1 140505Z 07001KT 26/14 A3019 RMK A01 T02570138  RH  048%=      5-min Rain = 0
KSB1 140506Z 07001KT 26/14 A3019 RMK A01 T02570138  RH  048%=      5-min Rain = 0
KSB1 140507Z 07000KT 26/14 A3019 RMK A01 T02560138  RH  048%=      5-min Rain = 0
KSB1 140508Z 24002KT 26/14 A3019 RMK A01 T02550136  RH  048%=      5-min Rain = 0
KSB1 140509Z 23002KT 25/14 A3019 RMK A01 T02530135  RH  048%=      5-min Rain = 0
KSB1 140510Z 25002KT 25/14 A3019 RMK A01 T02510135  RH  049%=      5-min Rain = 0
KSB1 140522Z 25002KT 25/14 A3019 RMK A01 T02500135  RH  049%=      5-min Rain = 0
KSB1 140523Z 24003KT 25/14 A3019 RMK A01 T02490135  RH  049%=      5-min Rain = 0
KSB1 140524Z 24003KT 25/13 A3018 RMK A01 T02490134  RH  049%=      5-min Rain = 0
KSB1 140525Z 24003KT 25/13 A3018 RMK A01 T02480134  RH  049%=      5-min Rain = 0
KSB1 140526Z 24003KT 25/13 A3018 RMK A01 T02480134  RH  049%=      5-min Rain = 0
KSB1 140527Z 24003KT 25/13 A3018 RMK A01 T02470134  RH  049%=      5-min Rain = 0
KSB1 140528Z 23003KT 25/13 A3018 RMK A01 T02470134  RH  049%=      5-min Rain = 0
KSB1 140529Z 23002KT 25/13 A3018 RMK A01 T02470134  RH  049%=      5-min Rain = 0
KSB1 140530Z 24002KT 25/14 A3018 RMK A01 T02480135  RH  049%=      5-min Rain = 0
KSB1 140531Z 25002KT 25/14 A3018 RMK A01 T02490135  RH  049%=      5-min Rain = 0
KSB1 140532Z 25002KT 25/14 A3018 RMK A01 T02500135  RH  049%=      5-min Rain = 0
KSB1 140533Z 25002KT 25/14 A3018 RMK A01 T02510135  RH  049%=      5-min Rain = 0
KSB1 140534Z 24001KT 25/14 A3018 RMK A01 T02510135  RH  049%=      5-min Rain = 0
KSB1 140535Z 23000KT 25/14 A3018 RMK A01 T02520135  RH  048%=      5-min Rain = 0
KSB1 140536Z 22001KT 25/14 A3018 RMK A01 T02520135  RH  048%=      5-min Rain = 0
KSB1 140537Z 24001KT 25/14 A3018 RMK A01 T02530135  RH  048%=      5-min Rain = 0
KSB1 140538Z 00000KT 25/14 A3018 RMK A01 T02540136  RH  048%=      5-min Rain = 0
KSB1 140539Z 00000KT 25/14 A3018 RMK A01 T02540136  RH  048%=      5-min Rain = 0
KSB1 140540Z 00000KT 25/14 A3018 RMK A01 T02540136  RH  048%=      5-min Rain = 0
KSB1 140541Z 00000KT 26/14 A3019 RMK A01 T02550136  RH  048%=      5-min Rain = 0
KSB1 140542Z 02000KT 26/14 A3019 RMK A01 T02550135  RH  047%=      5-min Rain = 0
KSB1 140543Z 02001KT 26/14 A3019 RMK A01 T02560135  RH  047%=      5-min Rain = 0
KSB1 140544Z 02001KT 26/14 A3019 RMK A01 T02560135  RH  047%=      5-min Rain = 0
KSB1 140545Z 02001KT 26/14 A3019 RMK A01 T02570135  RH  047%=      5-min Rain = 0
KSB1 140546Z 01001KT 26/14 A3019 RMK A01 T02570135  RH  047%=      5-min Rain = 0
KSB1 140547Z 01001KT 26/14 A3019 RMK A01 T02570135  RH  047%=      5-min Rain = 0
KSB1 140548Z 00002KT 26/14 A3019 RMK A01 T02580135  RH  047%=      5-min Rain = 0
KSB1 140549Z 00001KT 26/14 A3019 RMK A01 T02570135  RH  047%=      5-min Rain = 0
KSB1 140550Z 36002KT 26/14 A3019 RMK A01 T02570135  RH  047%=      5-min Rain = 0
KSB1 140551Z 36002KT 26/14 A3019 RMK A01 T02570135  RH  047%=      5-min Rain = 0
KSB1 140552Z 01002KT 26/14 A3019 RMK A01 T02570135  RH  047%=      5-min Rain = 0
KSB1 140553Z 03002KT 26/14 A3019 RMK A01 T02560135  RH  047%=      5-min Rain = 0
KSB1 140554Z 01003KT 26/14 A3019 RMK A01 T02570135  RH  047%=      5-min Rain = 0
KSB1 140555Z 00003KT 26/14 A3019 RMK A01 T02560135  RH  047%=      5-min Rain = 0
KSB1 140556Z 36003KT 25/13 A3019 RMK A01 T02540134  RH  047%=      5-min Rain = 0
KSB1 140557Z 35004KT 25/13 A3019 RMK A01 T02530134  RH  048%=      5-min Rain = 0
KSB1 140558Z 35003KT 25/14 A3019 RMK A01 T02520135  RH  048%=      5-min Rain = 0
KSB1 140559Z 36003KT 25/14 A3019 RMK A01 T02520135  RH  048%=      5-min Rain = 0
KSB1 140600Z 35003KT 25/14 A3019 RMK A01 T02510135  RH  048%=      5-min Rain = 0
KSB1 140601Z 00002KT 25/14 A3019 RMK A01 T02510135  RH  049%=      5-min Rain = 0
KSB1 140602Z 00002KT 25/14 A3019 RMK A01 T02510135  RH  049%=      5-min Rain = 0
KSB1 140603Z 01002KT 25/14 A3019 RMK A01 T02510135  RH  049%=      5-min Rain = 0
KSB1 140604Z 03001KT 25/14 A3019 RMK A01 T02510135  RH  048%=      5-min Rain = 0
KSB1 140605Z 01001KT 25/14 A3019 RMK A01 T02520136  RH  048%=      5-min Rain = 0
KSB1 140606Z 01001KT 25/14 A3019 RMK A01 T02520136  RH  048%=      5-min Rain = 0
KSB1 140607Z 01002KT 25/14 A3019 RMK A01 T02520135  RH  048%=      5-min Rain = 0
KSB1 140608Z 02002KT 25/14 A3019 RMK A01 T02530135  RH  048%=      5-min Rain = 0
KSB1 140609Z 02002KT 25/14 A3019 RMK A01 T02530135  RH  048%=      5-min Rain = 0
KSB1 140610Z 01002KT 25/14 A3019 RMK A01 T02530135  RH  048%=      5-min Rain = 0
KSB1 140611Z 00002KT 25/14 A3019 RMK A01 T02540135  RH  048%=      5-min Rain = 0
KSB1 140612Z 01002KT 25/14 A3019 RMK A01 T02530135  RH  048%=      5-min Rain = 0
KSB1 140613Z 02002KT 25/14 A3019 RMK A01 T02540135  RH  048%=      5-min Rain = 0
KSB1 140614Z 03002KT 25/14 A3019 RMK A01 T02540135  RH  048%=      5-min Rain = 0
KSB1 140615Z 04002KT 25/14 A3019 RMK A01 T02540135  RH  048%=      5-min Rain = 0
KSB1 140616Z 03002KT 25/14 A3019 RMK A01 T02540135  RH  048%=      5-min Rain = 0
KSB1 140617Z 04002KT 26/14 A3019 RMK A01 T02550135  RH  048%=      5-min Rain = 0
KSB1 140618Z 03002KT 25/14 A3019 RMK A01 T02540135  RH  048%=      5-min Rain = 0
KSB1 140619Z 02003KT 25/14 A3019 RMK A01 T02540135  RH  048%=      5-min Rain = 0
KSB1 140620Z 02003KT 25/13 A3019 RMK A01 T02530134  RH  048%=      5-min Rain = 0
KSB1 140621Z 02003KT 25/13 A3019 RMK A01 T02510133  RH  048%=      5-min Rain = 0
KSB1 140622Z 01003KT 25/13 A3019 RMK A01 T02500133  RH  048%=      5-min Rain = 0
KSB1 140623Z 01003KT 25/13 A3019 RMK A01 T02490133  RH  048%=      5-min Rain = 0
KSB1 140624Z 01003KT 25/13 A3019 RMK A01 T02490134  RH  049%=      5-min Rain = 0
KSB1 140625Z 01003KT 25/13 A3019 RMK A01 T02480133  RH  049%=      5-min Rain = 0
KSB1 140626Z 01002KT 25/13 A3019 RMK A01 T02480134  RH  049%=      5-min Rain = 0
KSB1 140627Z 01002KT 25/13 A3019 RMK A01 T02480134  RH  049%=      5-min Rain = 0
KSB1 140628Z 01002KT 25/13 A3019 RMK A01 T02480134  RH  049%=      5-min Rain = 0
KSB1 140629Z 02003KT 25/13 A3019 RMK A01 T02480134  RH  049%=      5-min Rain = 0
KSB1 140630Z 03002KT 25/13 A3019 RMK A01 T02480134  RH  049%=      5-min Rain = 0
KSB1 140631Z 03003KT 25/13 A3019 RMK A01 T02490134  RH  049%=      5-min Rain = 0
KSB1 140632Z 03003KT 25/13 A3019 RMK A01 T02490134  RH  049%=      5-min Rain = 0
KSB1 140633Z 02003KT 25/13 A3019 RMK A01 T02490134  RH  049%=      5-min Rain = 0
KSB1 140634Z 03003KT 25/13 A3019 RMK A01 T02490134  RH  049%=      5-min Rain = 0
KSB1 140635Z 03003KT 25/13 A3019 RMK A01 T02490134  RH  049%=      5-min Rain = 0
KSB1 140636Z 02003KT 25/13 A3019 RMK A01 T02490134  RH  049%=      5-min Rain = 0
KSB1 140637Z 02003KT 25/14 A3019 RMK A01 T02490135  RH  049%=      5-min Rain = 0
KSB1 140638Z 03003KT 25/14 A3019 RMK A01 T02490135  RH  049%=      5-min Rain = 0
KSB1 140639Z 04002KT 25/13 A3019 RMK A01 T02490134  RH  049%=      5-min Rain = 0
KSB1 140640Z 05002KT 25/13 A3019 RMK A01 T02490134  RH  049%=      5-min Rain = 0
KSB1 140641Z 04003KT 25/13 A3019 RMK A01 T02490134  RH  049%=      5-min Rain = 0
KSB1 140642Z 02003KT 25/13 A3019 RMK A01 T02490134  RH  049%=      5-min Rain = 0
KSB1 140643Z 02003KT 25/13 A3019 RMK A01 T02490134  RH  049%=      5-min Rain = 0
KSB1 140644Z 03003KT 25/13 A3019 RMK A01 T02480134  RH  049%=      5-min Rain = 0
KSB1 140645Z 06004KT 25/13 A302 RMK A01 T02480134  RH  049%=      5-min Rain = 0
KSB1 140646Z 06003KT 25/14 A302 RMK A01 T02480135  RH  049%=      5-min Rain = 0
KSB1 140647Z 05003KT 25/14 A302 RMK A01 T02480136  RH  050%=      5-min Rain = 0
KSB1 140648Z 06003KT 25/14 A302 RMK A01 T02480135  RH  049%=      5-min Rain = 0
KSB1 140649Z 07003KT 25/14 A302 RMK A01 T02480135  RH  049%=      5-min Rain = 0
KSB1 140650Z 07003KT 25/14 A302 RMK A01 T02480135  RH  049%=      5-min Rain = 0
KSB1 140651Z 08003KT 25/14 A302 RMK A01 T02480135  RH  049%=      5-min Rain = 0
KSB1 140652Z 07003KT 25/14 A302 RMK A01 T02470136  RH  050%=      5-min Rain = 0
KSB1 140653Z 08003KT 25/14 A302 RMK A01 T02470136  RH  050%=      5-min Rain = 0
KSB1 140654Z 08003KT 25/14 A302 RMK A01 T02470136  RH  050%=      5-min Rain = 0
KSB1 140655Z 08003KT 25/14 A302 RMK A01 T02470136  RH  050%=      5-min Rain = 0
KSB1 140656Z 08003KT 25/14 A302 RMK A01 T02460136  RH  050%=      5-min Rain = 0
KSB1 140657Z 09002KT 25/14 A302 RMK A01 T02460136  RH  050%=      5-min Rain = 0
KSB1 140658Z 07002KT 25/14 A302 RMK A01 T02460136  RH  050%=      5-min Rain = 0
KSB1 140659Z 08002KT 25/14 A302 RMK A01 T02460136  RH  050%=      5-min Rain = 0
KSB1 140700Z 07002KT 25/14 A302 RMK A01 T02450136  RH  050%=      5-min Rain = 0
KSB1 140701Z 08003KT 25/14 A302 RMK A01 T02450136  RH  051%=      5-min Rain = 0
KSB1 140702Z 08003KT 25/14 A302 RMK A01 T02450137  RH  051%=      5-min Rain = 0
KSB1 140703Z 08003KT 25/14 A302 RMK A01 T02450138  RH  051%=      5-min Rain = 0
KSB1 140704Z 08003KT 25/14 A302 RMK A01 T02450138  RH  051%=      5-min Rain = 0
KSB1 140705Z 08004KT 25/14 A302 RMK A01 T02450139  RH  052%=      5-min Rain = 0
KSB1 140706Z 09004KT 25/14 A302 RMK A01 T02460139  RH  051%=      5-min Rain = 0
KSB1 140707Z 10003KT 25/14 A302 RMK A01 T02450139  RH  051%=      5-min Rain = 0
KSB1 140708Z 10003KT 25/14 A302 RMK A01 T02460139  RH  051%=      5-min Rain = 0
KSB1 140709Z 11004KT 25/14 A302 RMK A01 T02470140  RH  051%=      5-min Rain = 0
KSB1 140710Z 10003KT 25/14 A302 RMK A01 T02470140  RH  051%=      5-min Rain = 0
KSB1 140711Z 10004KT 25/14 A302 RMK A01 T02470140  RH  051%=      5-min Rain = 0
KSB1 140712Z 09003KT 25/14 A302 RMK A01 T02470140  RH  051%=      5-min Rain = 0
KSB1 140713Z 10003KT 25/14 A302 RMK A01 T02460140  RH  051%=      5-min Rain = 0
KSB1 140714Z 09002KT 25/14 A302 RMK A01 T02460140  RH  052%=      5-min Rain = 0
KSB1 140715Z 10004KT 25/14 A302 RMK A01 T02460140  RH  052%=      5-min Rain = 0
KSB1 140716Z 10004KT 25/14 A302 RMK A01 T02450140  RH  052%=      5-min Rain = 0
KSB1 140717Z 10004KT 25/14 A302 RMK A01 T02460140  RH  052%=      5-min Rain = 0
KSB1 140718Z 09004KT 25/14 A302 RMK A01 T02450140  RH  052%=      5-min Rain = 0
KSB1 140719Z 11004KT 25/14 A302 RMK A01 T02450140  RH  052%=      5-min Rain = 0
KSB1 140720Z 11002KT 25/14 A302 RMK A01 T02450140  RH  052%=      5-min Rain = 0
KSB1 140721Z 11004KT 25/14 A302 RMK A01 T02450140  RH  052%=      5-min Rain = 0
KSB1 140722Z 09003KT 25/14 A302 RMK A01 T02450140  RH  052%=      5-min Rain = 0
KSB1 140723Z 10004KT 25/14 A302 RMK A01 T02450140  RH  052%=      5-min Rain = 0
KSB1 140724Z 09003KT 25/14 A302 RMK A01 T02450140  RH  052%=      5-min Rain = 0
KSB1 140725Z 09003KT 25/14 A302 RMK A01 T02450140  RH  052%=      5-min Rain = 0
KSB1 140726Z 09003KT 24/14 A302 RMK A01 T02440139  RH  052%=      5-min Rain = 0
KSB1 140727Z 09004KT 24/14 A302 RMK A01 T02430139  RH  052%=      5-min Rain = 0
KSB1 140728Z 09005KT 24/14 A302 RMK A01 T02430139  RH  052%=      5-min Rain = 0
KSB1 140729Z 09005KT 24/14 A302 RMK A01 T02430139  RH  052%=      5-min Rain = 0
KSB1 140730Z 08004KT 24/14 A302 RMK A01 T02430139  RH  052%=      5-min Rain = 0
KSB1 140731Z 08004KT 24/14 A302 RMK A01 T02430139  RH  052%=      5-min Rain = 0
KSB1 140732Z 08004KT 24/14 A302 RMK A01 T02430139  RH  052%=      5-min Rain = 0
KSB1 140733Z 07004KT 24/14 A302 RMK A01 T02420139  RH  053%=      5-min Rain = 0
KSB1 140734Z 08004KT 24/14 A302 RMK A01 T02410139  RH  053%=      5-min Rain = 0
KSB1 140735Z 07004KT 24/14 A302 RMK A01 T02410139  RH  053%=      5-min Rain = 0
KSB1 140736Z 07004KT 24/14 A302 RMK A01 T02400139  RH  053%=      5-min Rain = 0
KSB1 140737Z 08005KT 24/14 A302 RMK A01 T02400139  RH  053%=      5-min Rain = 0
KSB1 140738Z 08005KT 24/14 A302 RMK A01 T02400139  RH  053%=      5-min Rain = 0
KSB1 140739Z 08004KT 24/14 A302 RMK A01 T02390139  RH  053%=      5-min Rain = 0
KSB1 140740Z 09005KT 24/14 A302 RMK A01 T02390138  RH  053%=      5-min Rain = 0
KSB1 140741Z 09005KT 24/14 A302 RMK A01 T02390139  RH  053%=      5-min Rain = 0
KSB1 140742Z 09004KT 24/14 A302 RMK A01 T02390139  RH  053%=      5-min Rain = 0
KSB1 140743Z 09004KT 24/14 A302 RMK A01 T02390138  RH  053%=      5-min Rain = 0
KSB1 140744Z 09004KT 24/14 A302 RMK A01 T02390138  RH  053%=      5-min Rain = 0
KSB1 140745Z 09004KT 24/14 A302 RMK A01 T02380138  RH  053%=      5-min Rain = 0
KSB1 140746Z 09004KT 24/14 A302 RMK A01 T02380138  RH  053%=      5-min Rain = 0
KSB1 140747Z 08004KT 24/14 A302 RMK A01 T02380138  RH  053%=      5-min Rain = 0
KSB1 140748Z 08003KT 24/14 A302 RMK A01 T02370138  RH  054%=      5-min Rain = 0
KSB1 140749Z 09003KT 24/14 A302 RMK A01 T02370138  RH  054%=      5-min Rain = 0
KSB1 140750Z 09003KT 24/14 A302 RMK A01 T02370138  RH  054%=      5-min Rain = 0
KSB1 140751Z 09003KT 24/14 A302 RMK A01 T02370137  RH  054%=      5-min Rain = 0
KSB1 140752Z 08003KT 24/14 A302 RMK A01 T02370137  RH  054%=      5-min Rain = 0
KSB1 140753Z 08003KT 24/14 A302 RMK A01 T02370137  RH  054%=      5-min Rain = 0
KSB1 140754Z 08003KT 24/14 A302 RMK A01 T02370137  RH  054%=      5-min Rain = 0
KSB1 140755Z 07003KT 24/14 A302 RMK A01 T02370137  RH  053%=      5-min Rain = 0
KSB1 140756Z 07003KT 24/14 A302 RMK A01 T02370137  RH  053%=      5-min Rain = 0
KSB1 140757Z 07003KT 24/14 A302 RMK A01 T02370137  RH  053%=      5-min Rain = 0
KSB1 140758Z 08003KT 24/14 A302 RMK A01 T02370137  RH  054%=      5-min Rain = 0
KSB1 140759Z 08003KT 24/14 A302 RMK A01 T02380138  RH  053%=      5-min Rain = 0
KSB1 140800Z 09002KT 24/14 A302 RMK A01 T02380138  RH  053%=      5-min Rain = 0
KSB1 140801Z 10003KT 24/14 A302 RMK A01 T02380138  RH  054%=      5-min Rain = 0
KSB1 140802Z 11003KT 24/14 A302 RMK A01 T02380138  RH  053%=      5-min Rain = 0
KSB1 140803Z 10003KT 24/14 A302 RMK A01 T02390138  RH  053%=      5-min Rain = 0
KSB1 140804Z 09002KT 24/14 A302 RMK A01 T02390138  RH  053%=      5-min Rain = 0
KSB1 140805Z 09003KT 24/14 A302 RMK A01 T02400139  RH  053%=      5-min Rain = 0
KSB1 140806Z 10003KT 24/14 A302 RMK A01 T02390139  RH  053%=      5-min Rain = 0
KSB1 140807Z 10004KT 24/14 A302 RMK A01 T02400139  RH  053%=      5-min Rain = 0
KSB1 140808Z 10003KT 24/14 A3019 RMK A01 T02400139  RH  053%=      5-min Rain = 0
KSB1 140809Z 10003KT 24/14 A3019 RMK A01 T02400139  RH  053%=      5-min Rain = 0
KSB1 140810Z 10003KT 24/14 A3019 RMK A01 T02400140  RH  053%=      5-min Rain = 0
KSB1 140811Z 10003KT 24/14 A3019 RMK A01 T02400140  RH  053%=      5-min Rain = 0
KSB1 140812Z 09003KT 24/14 A3019 RMK A01 T02400140  RH  053%=      5-min Rain = 0
KSB1 140813Z 09004KT 24/14 A3019 RMK A01 T02400140  RH  053%=      5-min Rain = 0
KSB1 140814Z 08004KT 24/14 A3019 RMK A01 T02400139  RH  053%=      5-min Rain = 0
KSB1 140815Z 08004KT 24/14 A3019 RMK A01 T02390140  RH  054%=      5-min Rain = 0
KSB1 140816Z 08004KT 24/14 A3019 RMK A01 T02390140  RH  054%=      5-min Rain = 0
KSB1 140817Z 07005KT 24/14 A3019 RMK A01 T02380139  RH  054%=      5-min Rain = 0
KSB1 140818Z 07005KT 24/14 A3019 RMK A01 T02370139  RH  054%=      5-min Rain = 0
KSB1 140819Z 07004KT 24/14 A3019 RMK A01 T02360139  RH  054%=      5-min Rain = 0
KSB1 140820Z 07004KT 24/14 A3019 RMK A01 T02350139  RH  054%=      5-min Rain = 0
KSB1 140821Z 07004KT 24/14 A3019 RMK A01 T02350139  RH  055%=      5-min Rain = 0
KSB1 140822Z 07004KT 23/14 A3019 RMK A01 T02340138  RH  055%=      5-min Rain = 0
KSB1 140823Z 08003KT 23/14 A3019 RMK A01 T02340139  RH  055%=      5-min Rain = 0
KSB1 140824Z 08002KT 23/14 A3019 RMK A01 T02330139  RH  055%=      5-min Rain = 0
KSB1 140825Z 09002KT 23/14 A3019 RMK A01 T02330140  RH  056%=      5-min Rain = 0
KSB1 140826Z 09002KT 23/14 A3019 RMK A01 T02330140  RH  056%=      5-min Rain = 0
KSB1 140827Z 10002KT 23/14 A3019 RMK A01 T02330140  RH  056%=      5-min Rain = 0
KSB1 140828Z 11002KT 23/14 A302 RMK A01 T02330141  RH  056%=      5-min Rain = 0
KSB1 140829Z 12002KT 23/14 A302 RMK A01 T02330141  RH  056%=      5-min Rain = 0
KSB1 140830Z 13002KT 23/14 A302 RMK A01 T02330141  RH  056%=      5-min Rain = 0
KSB1 140831Z 14002KT 23/14 A302 RMK A01 T02330141  RH  056%=      5-min Rain = 0
KSB1 140832Z 15003KT 23/14 A302 RMK A01 T02340142  RH  056%=      5-min Rain = 0
KSB1 140833Z 16002KT 23/14 A302 RMK A01 T02340142  RH  056%=      5-min Rain = 0
KSB1 140834Z 16002KT 23/14 A302 RMK A01 T02340142  RH  056%=      5-min Rain = 0
KSB1 140835Z 16003KT 23/14 A302 RMK A01 T02340142  RH  056%=      5-min Rain = 0
KSB1 140836Z 14002KT 23/14 A3019 RMK A01 T02340142  RH  056%=      5-min Rain = 0
KSB1 140837Z 13002KT 23/14 A3019 RMK A01 T02340142  RH  056%=      5-min Rain = 0
KSB1 140838Z 11003KT 24/14 A3019 RMK A01 T02350142  RH  056%=      5-min Rain = 0
KSB1 140839Z 11003KT 23/14 A3019 RMK A01 T02340142  RH  056%=      5-min Rain = 0
KSB1 140840Z 09003KT 24/14 A3019 RMK A01 T02350144  RH  056%=      5-min Rain = 0
KSB1 140841Z 09003KT 24/14 A3019 RMK A01 T02350143  RH  056%=      5-min Rain = 0
KSB1 140842Z 10003KT 24/14 A3019 RMK A01 T02360143  RH  056%=      5-min Rain = 0
KSB1 140843Z 09003KT 24/14 A3019 RMK A01 T02350143  RH  056%=      5-min Rain = 0
KSB1 140844Z 10003KT 24/14 A3019 RMK A01 T02350143  RH  056%=      5-min Rain = 0
KSB1 140845Z 11003KT 24/14 A3019 RMK A01 T02350143  RH  056%=      5-min Rain = 0
KSB1 140846Z 12003KT 24/14 A3019 RMK A01 T02350143  RH  056%=      5-min Rain = 0
KSB1 140847Z 13004KT 24/14 A3019 RMK A01 T02350143  RH  056%=      5-min Rain = 0
KSB1 140848Z 13004KT 24/14 A3019 RMK A01 T02350143  RH  056%=      5-min Rain = 0
KSB1 140849Z 13004KT 23/14 A3019 RMK A01 T02340143  RH  056%=      5-min Rain = 0
KSB1 140850Z 13004KT 23/14 A3019 RMK A01 T02330142  RH  056%=      5-min Rain = 0
KSB1 140851Z 13004KT 23/14 A3019 RMK A01 T02330141  RH  056%=      5-min Rain = 0
KSB1 140852Z 12004KT 23/14 A3019 RMK A01 T02310141  RH  057%=      5-min Rain = 0
KSB1 140853Z 11004KT 23/14 A302 RMK A01 T02310141  RH  057%=      5-min Rain = 0
KSB1 140854Z 11004KT 23/14 A302 RMK A01 T02310141  RH  057%=      5-min Rain = 0
KSB1 140855Z 10004KT 23/14 A302 RMK A01 T02310142  RH  057%=      5-min Rain = 0
KSB1 140856Z 10004KT 23/14 A302 RMK A01 T02310141  RH  057%=      5-min Rain = 0
KSB1 140857Z 10003KT 23/14 A302 RMK A01 T02310141  RH  057%=      5-min Rain = 0
KSB1 140858Z 11003KT 23/14 A302 RMK A01 T02310141  RH  057%=      5-min Rain = 0
KSB1 140859Z 11003KT 23/14 A302 RMK A01 T02300141  RH  057%=      5-min Rain = 0
KSB1 140900Z 11002KT 23/14 A302 RMK A01 T02300142  RH  057%=      5-min Rain = 0
KSB1 140901Z 12003KT 23/14 A302 RMK A01 T02310142  RH  057%=      5-min Rain = 0
KSB1 140902Z 12002KT 23/14 A302 RMK A01 T02310143  RH  058%=      5-min Rain = 0
KSB1 140903Z 12002KT 23/14 A302 RMK A01 T02310143  RH  058%=      5-min Rain = 0
KSB1 140904Z 11002KT 23/14 A302 RMK A01 T02310143  RH  058%=      5-min Rain = 0
KSB1 140905Z 10002KT 23/14 A302 RMK A01 T02310143  RH  058%=      5-min Rain = 0
KSB1 140906Z 09002KT 23/14 A302 RMK A01 T02320144  RH  058%=      5-min Rain = 0
KSB1 140907Z 08003KT 23/14 A302 RMK A01 T02320142  RH  057%=      5-min Rain = 0
KSB1 140908Z 08002KT 23/14 A302 RMK A01 T02320142  RH  057%=      5-min Rain = 0
KSB1 140909Z 08002KT 23/14 A302 RMK A01 T02310142  RH  057%=      5-min Rain = 0
KSB1 140910Z 08002KT 23/14 A3019 RMK A01 T02310143  RH  058%=      5-min Rain = 0
KSB1 140911Z 09002KT 23/14 A3019 RMK A01 T02310143  RH  058%=      5-min Rain = 0
KSB1 140912Z 10001KT 23/14 A3019 RMK A01 T02300143  RH  058%=      5-min Rain = 0
KSB1 140913Z 11001KT 23/14 A302 RMK A01 T02300143  RH  058%=      5-min Rain = 0
KSB1 140914Z 11000KT 23/14 A302 RMK A01 T02300143  RH  058%=      5-min Rain = 0
KSB1 140915Z 20001KT 23/14 A302 RMK A01 T02300143  RH  058%=      5-min Rain = 0
KSB1 140916Z 20002KT 23/14 A3019 RMK A01 T02300143  RH  058%=      5-min Rain = 0
KSB1 140917Z 20001KT 23/14 A3019 RMK A01 T02300143  RH  058%=      5-min Rain = 0
KSB1 140918Z 21001KT 23/14 A3019 RMK A01 T02290143  RH  058%=      5-min Rain = 0
KSB1 140919Z 21001KT 23/14 A3019 RMK A01 T02290143  RH  058%=      5-min Rain = 0
KSB1 140920Z 21001KT 23/14 A3019 RMK A01 T02290143  RH  058%=      5-min Rain = 0
KSB1 140921Z 20001KT 23/14 A3019 RMK A01 T02280143  RH  058%=      5-min Rain = 0
KSB1 140922Z 21001KT 23/14 A3019 RMK A01 T02290143  RH  058%=      5-min Rain = 0
KSB1 140923Z 21001KT 23/14 A3019 RMK A01 T02290143  RH  059%=      5-min Rain = 0
KSB1 140924Z 21001KT 23/14 A3019 RMK A01 T02290144  RH  059%=      5-min Rain = 0
KSB1 140925Z 21001KT 23/14 A3019 RMK A01 T02290143  RH  058%=      5-min Rain = 0
KSB1 140926Z 21001KT 23/14 A3019 RMK A01 T02290143  RH  058%=      5-min Rain = 0
KSB1 140927Z 21001KT 23/14 A3019 RMK A01 T02290144  RH  058%=      5-min Rain = 0
KSB1 140928Z 21001KT 23/14 A3019 RMK A01 T02290144  RH  058%=      5-min Rain = 0
KSB1 140929Z 21001KT 23/14 A3019 RMK A01 T02290144  RH  058%=      5-min Rain = 0
KSB1 140930Z 21000KT 23/14 A3019 RMK A01 T02290143  RH  058%=      5-min Rain = 0
KSB1 140931Z 21000KT 23/14 A3019 RMK A01 T02290143  RH  058%=      5-min Rain = 0
KSB1 140932Z 00000KT 23/14 A3019 RMK A01 T02300144  RH  058%=      5-min Rain = 0
KSB1 140933Z 00000KT 23/14 A3019 RMK A01 T02300144  RH  058%=      5-min Rain = 0
KSB1 140934Z 00000KT 23/14 A3019 RMK A01 T02290144  RH  059%=      5-min Rain = 0
KSB1 140935Z 00000KT 23/14 A3019 RMK A01 T02290144  RH  058%=      5-min Rain = 0
KSB1 140936Z 00000KT 23/14 A3019 RMK A01 T02300144  RH  059%=      5-min Rain = 0
KSB1 140937Z 00000KT 23/15 A3019 RMK A01 T02300145  RH  059%=      5-min Rain = 0
KSB1 140938Z 00000KT 23/15 A3019 RMK A01 T02300145  RH  059%=      5-min Rain = 0
KSB1 140939Z 00000KT 23/15 A3019 RMK A01 T02300145  RH  059%=      5-min Rain = 0
KSB1 140940Z 00000KT 23/15 A3019 RMK A01 T02310145  RH  058%=      5-min Rain = 0
KSB1 140941Z 00000KT 23/15 A3019 RMK A01 T02310145  RH  058%=      5-min Rain = 0
KSB1 140942Z 00000KT 23/15 A3019 RMK A01 T02310145  RH  058%=      5-min Rain = 0
KSB1 140943Z 00000KT 23/15 A3019 RMK A01 T02310145  RH  058%=      5-min Rain = 0
KSB1 140944Z 00000KT 23/15 A3019 RMK A01 T02310145  RH  058%=      5-min Rain = 0
KSB1 140945Z 00000KT 23/15 A3019 RMK A01 T02310146  RH  058%=      5-min Rain = 0
KSB1 140946Z 00000KT 23/15 A3019 RMK A01 T02310145  RH  058%=      5-min Rain = 0
KSB1 140947Z 00000KT 23/15 A3019 RMK A01 T02310145  RH  058%=      5-min Rain = 0
KSB1 140948Z 00000KT 23/15 A3019 RMK A01 T02310146  RH  058%=      5-min Rain = 0
KSB1 140949Z 00000KT 23/15 A3019 RMK A01 T02320146  RH  058%=      5-min Rain = 0
KSB1 140950Z 00000KT 23/15 A3019 RMK A01 T02320146  RH  058%=      5-min Rain = 0
KSB1 140951Z 00000KT 23/15 A3019 RMK A01 T02320146  RH  058%=      5-min Rain = 0
KSB1 140952Z 00000KT 23/15 A3019 RMK A01 T02320146  RH  058%=      5-min Rain = 0
KSB1 140953Z 00000KT 23/15 A3019 RMK A01 T02320146  RH  058%=      5-min Rain = 0
KSB1 140954Z 00000KT 23/15 A3019 RMK A01 T02320146  RH  058%=      5-min Rain = 0
KSB1 140955Z 00000KT 23/15 A3018 RMK A01 T02320146  RH  058%=      5-min Rain = 0
KSB1 140956Z 00000KT 23/15 A3018 RMK A01 T02320146  RH  058%=      5-min Rain = 0
KSB1 140957Z 27000KT 23/15 A3018 RMK A01 T02320146  RH  058%=      5-min Rain = 0
KSB1 140958Z 27001KT 23/15 A3018 RMK A01 T02320145  RH  058%=      5-min Rain = 0
KSB1 140959Z 27001KT 23/15 A3018 RMK A01 T02320145  RH  058%=      5-min Rain = 0
KSB1 141000Z 26001KT 23/15 A3018 RMK A01 T02320145  RH  058%=      5-min Rain = 0
KSB1 141001Z 25002KT 23/15 A3018 RMK A01 T02310145  RH  058%=      5-min Rain = 0
KSB1 141002Z 25002KT 23/15 A3018 RMK A01 T02300145  RH  059%=      5-min Rain = 0
KSB1 141003Z 25002KT 23/15 A3018 RMK A01 T02300145  RH  059%=      5-min Rain = 0
KSB1 141004Z 25002KT 23/14 A3018 RMK A01 T02290144  RH  059%=      5-min Rain = 0
KSB1 141005Z 25002KT 23/14 A3018 RMK A01 T02280144  RH  059%=      5-min Rain = 0
KSB1 141006Z 26002KT 23/15 A3018 RMK A01 T02270145  RH  060%=      5-min Rain = 0
KSB1 141007Z 26002KT 23/15 A3018 RMK A01 T02270145  RH  060%=      5-min Rain = 0
KSB1 141008Z 26002KT 23/14 A3018 RMK A01 T02270144  RH  059%=      5-min Rain = 0
KSB1 141009Z 26003KT 23/14 A3018 RMK A01 T02270144  RH  059%=      5-min Rain = 0
KSB1 141010Z 27003KT 23/14 A3018 RMK A01 T02270144  RH  059%=      5-min Rain = 0
KSB1 141011Z 27003KT 23/14 A3018 RMK A01 T02270144  RH  059%=      5-min Rain = 0
KSB1 141012Z 28002KT 23/14 A3018 RMK A01 T02270144  RH  059%=      5-min Rain = 0
KSB1 141013Z 28002KT 23/14 A3018 RMK A01 T02260144  RH  059%=      5-min Rain = 0
KSB1 141014Z 28002KT 23/14 A3018 RMK A01 T02260144  RH  060%=      5-min Rain = 0
KSB1 141015Z 28001KT 23/14 A3018 RMK A01 T02270144  RH  060%=      5-min Rain = 0
KSB1 141016Z 28000KT 23/15 A3018 RMK A01 T02270145  RH  060%=      5-min Rain = 0
KSB1 141017Z 00000KT 23/15 A3018 RMK A01 T02290146  RH  060%=      5-min Rain = 0
KSB1 141018Z 00000KT 23/15 A3018 RMK A01 T02300146  RH  059%=      5-min Rain = 0
KSB1 141019Z 00000KT 23/15 A3018 RMK A01 T02310146  RH  059%=      5-min Rain = 0
KSB1 141020Z 28001KT 23/15 A3018 RMK A01 T02320146  RH  059%=      5-min Rain = 0
KSB1 141021Z 28001KT 23/15 A3018 RMK A01 T02310145  RH  058%=      5-min Rain = 0
KSB1 141022Z 28001KT 23/15 A3018 RMK A01 T02310145  RH  058%=      5-min Rain = 0
KSB1 141023Z 28000KT 23/15 A3018 RMK A01 T02310145  RH  058%=      5-min Rain = 0
KSB1 141024Z 00000KT 23/15 A3018 RMK A01 T02320146  RH  059%=      5-min Rain = 0
KSB1 141025Z 00001KT 23/15 A3018 RMK A01 T02320145  RH  058%=      5-min Rain = 0
KSB1 141026Z 00003KT 23/14 A3018 RMK A01 T02320144  RH  058%=      5-min Rain = 0
KSB1 141027Z 00003KT 23/14 A3018 RMK A01 T02290143  RH  058%=      5-min Rain = 0
KSB1 141028Z 35004KT 23/14 A3018 RMK A01 T02280143  RH  059%=      5-min Rain = 0
KSB1 141029Z 35003KT 23/14 A3018 RMK A01 T02260140  RH  058%=      5-min Rain = 0
KSB1 141030Z 34002KT 23/14 A3018 RMK A01 T02250139  RH  058%=      5-min Rain = 0
KSB1 141031Z 34002KT 22/14 A3018 RMK A01 T02240139  RH  059%=      5-min Rain = 0
KSB1 141032Z 34002KT 22/14 A3018 RMK A01 T02240141  RH  059%=      5-min Rain = 0
KSB1 141033Z 34002KT 23/14 A3018 RMK A01 T02250141  RH  059%=      5-min Rain = 0
KSB1 141034Z 34002KT 23/14 A3018 RMK A01 T02260142  RH  059%=      5-min Rain = 0
KSB1 141035Z 34002KT 23/14 A3018 RMK A01 T02260142  RH  059%=      5-min Rain = 0
KSB1 141036Z 35002KT 23/14 A3018 RMK A01 T02270142  RH  059%=      5-min Rain = 0
KSB1 141037Z 34002KT 23/14 A3018 RMK A01 T02280143  RH  059%=      5-min Rain = 0
KSB1 141038Z 34002KT 23/14 A3018 RMK A01 T02290143  RH  058%=      5-min Rain = 0
KSB1 141039Z 33002KT 23/14 A3018 RMK A01 T02290143  RH  058%=      5-min Rain = 0
KSB1 141040Z 32003KT 23/14 A3018 RMK A01 T02290143  RH  058%=      5-min Rain = 0
KSB1 141041Z 31002KT 23/14 A3018 RMK A01 T02300143  RH  058%=      5-min Rain = 0
KSB1 141042Z 32002KT 23/14 A3018 RMK A01 T02300143  RH  058%=      5-min Rain = 0
KSB1 141043Z 31002KT 23/14 A3018 RMK A01 T02290143  RH  058%=      5-min Rain = 0
KSB1 141044Z 30002KT 23/14 A3018 RMK A01 T02290142  RH  058%=      5-min Rain = 0
KSB1 141045Z 29001KT 23/14 A3018 RMK A01 T02300142  RH  058%=      5-min Rain = 0
KSB1 141046Z 29001KT 23/14 A3018 RMK A01 T02290142  RH  058%=      5-min Rain = 0
KSB1 141047Z 29001KT 23/14 A3018 RMK A01 T02300143  RH  058%=      5-min Rain = 0
KSB1 141048Z 28001KT 23/14 A3018 RMK A01 T02300143  RH  058%=      5-min Rain = 0
KSB1 141049Z 27001KT 23/14 A3018 RMK A01 T02300143  RH  058%=      5-min Rain = 0
KSB1 141050Z 27001KT 23/14 A3018 RMK A01 T02300143  RH  058%=      5-min Rain = 0
KSB1 141051Z 27000KT 23/14 A3018 RMK A01 T02300144  RH  058%=      5-min Rain = 0
KSB1 141052Z 27000KT 23/14 A3018 RMK A01 T02310144  RH  058%=      5-min Rain = 0
KSB1 141053Z 00000KT 23/14 A3018 RMK A01 T02310144  RH  058%=      5-min Rain = 0
KSB1 141054Z 00000KT 23/14 A3018 RMK A01 T02310144  RH  058%=      5-min Rain = 0
KSB1 141055Z 00000KT 23/14 A3018 RMK A01 T02320144  RH  058%=      5-min Rain = 0
KSB1 141056Z 00000KT 23/14 A3018 RMK A01 T02320144  RH  058%=      5-min Rain = 0
KSB1 141057Z 00000KT 23/15 A3018 RMK A01 T02320145  RH  058%=      5-min Rain = 0
KSB1 141058Z 00000KT 23/14 A3018 RMK A01 T02320144  RH  058%=      5-min Rain = 0
KSB1 141059Z 00000KT 23/14 A3018 RMK A01 T02320144  RH  058%=      5-min Rain = 0
KSB1 141100Z 33001KT 23/14 A3018 RMK A01 T02310144  RH  058%=      5-min Rain = 0
KSB1 141101Z 34001KT 23/14 A3018 RMK A01 T02310144  RH  058%=      5-min Rain = 0
KSB1 141102Z 34000KT 23/14 A3018 RMK A01 T02310143  RH  058%=      5-min Rain = 0
KSB1 141103Z 35001KT 23/14 A3018 RMK A01 T02300142  RH  058%=      5-min Rain = 0
KSB1 141104Z 35001KT 23/14 A3018 RMK A01 T02290141  RH  058%=      5-min Rain = 0
KSB1 141105Z 35002KT 23/14 A3018 RMK A01 T02280141  RH  058%=      5-min Rain = 0
KSB1 141106Z 34004KT 23/14 A3018 RMK A01 T02270140  RH  058%=      5-min Rain = 0
KSB1 141107Z 34004KT 23/14 A3018 RMK A01 T02250139  RH  058%=      5-min Rain = 0
KSB1 141108Z 34004KT 22/14 A3018 RMK A01 T02240139  RH  059%=      5-min Rain = 0
KSB1 141109Z 34004KT 22/14 A3018 RMK A01 T02230139  RH  059%=      5-min Rain = 0
KSB1 141110Z 34004KT 22/14 A3018 RMK A01 T02220139  RH  059%=      5-min Rain = 0
KSB1 141111Z 34005KT 22/14 A3018 RMK A01 T02210139  RH  059%=      5-min Rain = 0
KSB1 141112Z 34005KT 22/14 A3018 RMK A01 T02200138  RH  059%=      5-min Rain = 0
KSB1 141113Z 33004KT 22/14 A3018 RMK A01 T02200138  RH  060%=      5-min Rain = 0
KSB1 141114Z 33004KT 22/14 A3018 RMK A01 T02190138  RH  060%=      5-min Rain = 0
KSB1 141115Z 32003KT 22/14 A3018 RMK A01 T02190138  RH  060%=      5-min Rain = 0
KSB1 141116Z 32003KT 22/14 A3018 RMK A01 T02200139  RH  060%=      5-min Rain = 0
KSB1 141117Z 32003KT 22/14 A3018 RMK A01 T02210140  RH  060%=      5-min Rain = 0
KSB1 141118Z 32002KT 22/14 A3018 RMK A01 T02220140  RH  060%=      5-min Rain = 0
KSB1 141119Z 32002KT 22/14 A3018 RMK A01 T02230141  RH  060%=      5-min Rain = 0
KSB1 141120Z 32001KT 22/14 A3018 RMK A01 T02240141  RH  059%=      5-min Rain = 0
KSB1 141121Z 33001KT 23/14 A3018 RMK A01 T02260142  RH  059%=      5-min Rain = 0
KSB1 141122Z 34002KT 23/14 A3018 RMK A01 T02270141  RH  058%=      5-min Rain = 0
KSB1 141123Z 34002KT 23/14 A3018 RMK A01 T02290142  RH  058%=      5-min Rain = 0
KSB1 141124Z 34002KT 23/14 A3018 RMK A01 T02290141  RH  058%=      5-min Rain = 0
KSB1 141125Z 34002KT 23/14 A3018 RMK A01 T02300142  RH  057%=      5-min Rain = 0
KSB1 141126Z 35003KT 23/14 A3018 RMK A01 T02300141  RH  057%=      5-min Rain = 0
KSB1 141127Z 34002KT 23/14 A3018 RMK A01 T02310142  RH  057%=      5-min Rain = 0
KSB1 141128Z 34002KT 23/14 A3018 RMK A01 T02310142  RH  057%=      5-min Rain = 0
KSB1 141129Z 33002KT 23/14 A3018 RMK A01 T02310141  RH  057%=      5-min Rain = 0
KSB1 141130Z 34002KT 23/14 A3018 RMK A01 T02310142  RH  057%=      5-min Rain = 0
KSB1 141131Z 34003KT 23/14 A3018 RMK A01 T02320141  RH  057%=      5-min Rain = 0
KSB1 141132Z 35003KT 23/14 A3018 RMK A01 T02320141  RH  057%=      5-min Rain = 0
KSB1 141133Z 35003KT 23/14 A3018 RMK A01 T02320142  RH  057%=      5-min Rain = 0
KSB1 141134Z 35003KT 23/14 A3018 RMK A01 T02310140  RH  057%=      5-min Rain = 0
KSB1 141135Z 35004KT 23/14 A3018 RMK A01 T02290139  RH  057%=      5-min Rain = 0
KSB1 141136Z 35004KT 23/14 A3018 RMK A01 T02270139  RH  058%=      5-min Rain = 0
KSB1 141137Z 35005KT 23/14 A3018 RMK A01 T02250138  RH  058%=      5-min Rain = 0
KSB1 141138Z 34004KT 22/14 A3018 RMK A01 T02230138  RH  059%=      5-min Rain = 0
KSB1 141139Z 34004KT 22/14 A3018 RMK A01 T02210139  RH  059%=      5-min Rain = 0
KSB1 141140Z 34004KT 22/14 A3018 RMK A01 T02210139  RH  060%=      5-min Rain = 0
KSB1 141141Z 34004KT 22/14 A3018 RMK A01 T02200139  RH  060%=      5-min Rain = 0
KSB1 141142Z 35004KT 22/14 A3018 RMK A01 T02200140  RH  060%=      5-min Rain = 0
KSB1 141143Z 35004KT 22/14 A3018 RMK A01 T02210140  RH  060%=      5-min Rain = 0
KSB1 141144Z 35004KT 22/14 A3018 RMK A01 T02210140  RH  060%=      5-min Rain = 0
KSB1 141145Z 35004KT 22/14 A3018 RMK A01 T02220141  RH  060%=      5-min Rain = 0
KSB1 141146Z 35004KT 22/14 A3018 RMK A01 T02230141  RH  060%=      5-min Rain = 0
KSB1 141147Z 35005KT 22/14 A3018 RMK A01 T02230141  RH  060%=      5-min Rain = 0
KSB1 141148Z 35005KT 22/14 A3018 RMK A01 T02240141  RH  060%=      5-min Rain = 0
KSB1 141149Z 34005KT 22/14 A3018 RMK A01 T02240142  RH  060%=      5-min Rain = 0
KSB1 141150Z 34005KT 22/14 A3018 RMK A01 T02230141  RH  060%=      5-min Rain = 0
KSB1 141151Z 34005KT 22/14 A3018 RMK A01 T02240142  RH  060%=      5-min Rain = 0
KSB1 141152Z 34005KT 22/14 A3018 RMK A01 T02240142  RH  059%=      5-min Rain = 0
KSB1 141153Z 34005KT 22/14 A3019 RMK A01 T02240142  RH  059%=      5-min Rain = 0
KSB1 141154Z 34005KT 23/14 A3019 RMK A01 T02250142  RH  059%=      5-min Rain = 0
KSB1 141155Z 34005KT 23/14 A3019 RMK A01 T02250142  RH  059%=      5-min Rain = 0
KSB1 141156Z 34004KT 23/14 A3019 RMK A01 T02250142  RH  059%=      5-min Rain = 0
KSB1 141157Z 34004KT 23/14 A3019 RMK A01 T02260142  RH  059%=      5-min Rain = 0
KSB1 141158Z 34004KT 23/14 A3019 RMK A01 T02260142  RH  059%=      5-min Rain = 0
KSB1 141159Z 34004KT 23/14 A3019 RMK A01 T02270143  RH  059%=      5-min Rain = 0
KSB1 141200Z 34004KT 23/14 A3019 RMK A01 T02270142  RH  059%=      5-min Rain = 0
KSB1 141201Z 35004KT 23/14 A3019 RMK A01 T02280142  RH  058%=      5-min Rain = 0
KSB1 141202Z 35004KT 23/14 A3019 RMK A01 T02290142  RH  058%=      5-min Rain = 0
KSB1 141203Z 36004KT 23/14 A3019 RMK A01 T02290142  RH  058%=      5-min Rain = 0
KSB1 141204Z 35005KT 23/14 A3019 RMK A01 T02290141  RH  058%=      5-min Rain = 0
KSB1 141205Z 36005KT 23/14 A3019 RMK A01 T02260140  RH  058%=      5-min Rain = 0
KSB1 141206Z 36005KT 22/14 A3019 RMK A01 T02230139  RH  059%=      5-min Rain = 0
KSB1 141207Z 35005KT 22/14 A3019 RMK A01 T02200139  RH  060%=      5-min Rain = 0
KSB1 141208Z 35005KT 22/14 A3019 RMK A01 T02170138  RH  061%=      5-min Rain = 0
KSB1 141209Z 35005KT 22/14 A3019 RMK A01 T02160138  RH  061%=      5-min Rain = 0
KSB1 141210Z 35005KT 21/14 A3019 RMK A01 T02140139  RH  062%=      5-min Rain = 0
KSB1 141211Z 35005KT 21/14 A3019 RMK A01 T02130139  RH  062%=      5-min Rain = 0
KSB1 141212Z 36005KT 21/14 A302 RMK A01 T02140139  RH  063%=      5-min Rain = 0
KSB1 141213Z 00005KT 21/14 A302 RMK A01 T02140139  RH  062%=      5-min Rain = 0
KSB1 141214Z 01004KT 22/14 A302 RMK A01 T02160140  RH  062%=      5-min Rain = 0
KSB1 141215Z 01004KT 22/14 A302 RMK A01 T02170140  RH  062%=      5-min Rain = 0
KSB1 141216Z 01005KT 22/14 A302 RMK A01 T02170139  RH  061%=      5-min Rain = 0
KSB1 141217Z 01005KT 22/14 A302 RMK A01 T02170140  RH  061%=      5-min Rain = 0
KSB1 141218Z 01005KT 22/14 A302 RMK A01 T02170140  RH  062%=      5-min Rain = 0
KSB1 141219Z 01005KT 22/14 A302 RMK A01 T02180140  RH  061%=      5-min Rain = 0
KSB1 141220Z 01005KT 22/14 A302 RMK A01 T02180140  RH  061%=      5-min Rain = 0
KSB1 141221Z 01004KT 22/14 A302 RMK A01 T02180140  RH  061%=      5-min Rain = 0
KSB1 141222Z 01005KT 22/14 A302 RMK A01 T02180140  RH  061%=      5-min Rain = 0
KSB1 141223Z 00005KT 22/14 A302 RMK A01 T02190140  RH  061%=      5-min Rain = 0
KSB1 141224Z 00005KT 22/14 A302 RMK A01 T02190140  RH  061%=      5-min Rain = 0
KSB1 141225Z 00005KT 22/14 A302 RMK A01 T02190140  RH  061%=      5-min Rain = 0
KSB1 141226Z 01006KT 22/14 A302 RMK A01 T02190140  RH  061%=      5-min Rain = 0
KSB1 141227Z 01005KT 22/14 A302 RMK A01 T02180140  RH  061%=      5-min Rain = 0
KSB1 141228Z 00005KT 22/14 A302 RMK A01 T02180140  RH  061%=      5-min Rain = 0
KSB1 141229Z 00005KT 22/14 A302 RMK A01 T02180140  RH  061%=      5-min Rain = 0
KSB1 141230Z 00006KT 22/14 A302 RMK A01 T02180140  RH  061%=      5-min Rain = 0
KSB1 141231Z 00005KT 22/14 A302 RMK A01 T02190140  RH  061%=      5-min Rain = 0
KSB1 141232Z 36005KT 22/14 A302 RMK A01 T02190140  RH  061%=      5-min Rain = 0
KSB1 141233Z 36005KT 22/14 A302 RMK A01 T02190139  RH  061%=      5-min Rain = 0
KSB1 141234Z 34004KT 22/14 A302 RMK A01 T02190139  RH  061%=      5-min Rain = 0
KSB1 141235Z 33004KT 22/14 A302 RMK A01 T02190140  RH  061%=      5-min Rain = 0
KSB1 141236Z 32004KT 22/14 A302 RMK A01 T02200140  RH  060%=      5-min Rain = 0
KSB1 141237Z 31004KT 22/14 A302 RMK A01 T02210140  RH  060%=      5-min Rain = 0
KSB1 141238Z 31004KT 22/14 A302 RMK A01 T02220140  RH  060%=      5-min Rain = 0
KSB1 141239Z 30003KT 22/14 A302 RMK A01 T02210138  RH  059%=      5-min Rain = 0
KSB1 141240Z 31004KT 22/14 A302 RMK A01 T02180135  RH  059%=      5-min Rain = 0
KSB1 141241Z 31004KT 22/14 A302 RMK A01 T02150135  RH  060%=      5-min Rain = 0
KSB1 141242Z 30004KT 21/14 A302 RMK A01 T02140135  RH  061%=      5-min Rain = 0
KSB1 141243Z 31004KT 21/14 A302 RMK A01 T02140136  RH  061%=      5-min Rain = 0
KSB1 141244Z 31004KT 22/14 A302 RMK A01 T02150136  RH  061%=      5-min Rain = 0
KSB1 141245Z 31004KT 22/14 A302 RMK A01 T02170137  RH  061%=      5-min Rain = 0
KSB1 141246Z 32004KT 22/14 A302 RMK A01 T02180138  RH  060%=      5-min Rain = 0
KSB1 141247Z 32003KT 22/14 A302 RMK A01 T02200139  RH  060%=      5-min Rain = 0
KSB1 141248Z 32003KT 22/14 A302 RMK A01 T02230139  RH  059%=      5-min Rain = 0
KSB1 141249Z 32003KT 22/14 A302 RMK A01 T02240139  RH  058%=      5-min Rain = 0
KSB1 141250Z 31003KT 23/14 A302 RMK A01 T02260139  RH  058%=      5-min Rain = 0
KSB1 141251Z 30003KT 23/14 A302 RMK A01 T02260137  RH  057%=      5-min Rain = 0
KSB1 141252Z 28003KT 22/14 A302 RMK A01 T02240135  RH  057%=      5-min Rain = 0
KSB1 141253Z 27003KT 22/14 A302 RMK A01 T02210135  RH  058%=      5-min Rain = 0
KSB1 141254Z 27003KT 22/14 A302 RMK A01 T02190135  RH  059%=      5-min Rain = 0
KSB1 141255Z 28003KT 22/14 A302 RMK A01 T02190136  RH  059%=      5-min Rain = 0
KSB1 141256Z 28003KT 22/14 A302 RMK A01 T02210137  RH  059%=      5-min Rain = 0
KSB1 141257Z 29003KT 22/14 A3021 RMK A01 T02220136  RH  058%=      5-min Rain = 0
KSB1 141258Z 30002KT 22/14 A3021 RMK A01 T02230137  RH  058%=      5-min Rain = 0
KSB1 141259Z 32002KT 23/14 A3021 RMK A01 T02250138  RH  058%=      5-min Rain = 0
KSB1 141300Z 32002KT 23/14 A3021 RMK A01 T02280138  RH  057%=      5-min Rain = 0
KSB1 141301Z 33003KT 23/14 A302 RMK A01 T02300138  RH  056%=      5-min Rain = 0
KSB1 141302Z 34003KT 23/14 A3021 RMK A01 T02320139  RH  056%=      5-min Rain = 0
KSB1 141303Z 34003KT 24/14 A3021 RMK A01 T02350139  RH  055%=      5-min Rain = 0
KSB1 141304Z 34003KT 24/14 A3021 RMK A01 T02370139  RH  054%=      5-min Rain = 0
KSB1 141305Z 35003KT 24/14 A3021 RMK A01 T02390139  RH  054%=      5-min Rain = 0
KSB1 141306Z 34002KT 24/14 A3021 RMK A01 T02400139  RH  053%=      5-min Rain = 0
KSB1 141307Z 35002KT 24/14 A3021 RMK A01 T02410139  RH  053%=      5-min Rain = 0
KSB1 141308Z 35002KT 24/14 A3021 RMK A01 T02420139  RH  053%=      5-min Rain = 0
KSB1 141309Z 34002KT 24/14 A3021 RMK A01 T02430140  RH  052%=      5-min Rain = 0
KSB1 141310Z 34002KT 24/14 A3021 RMK A01 T02440140  RH  052%=      5-min Rain = 0
KSB1 141311Z 34002KT 24/14 A3021 RMK A01 T02440139  RH  052%=      5-min Rain = 0
KSB1 141312Z 34002KT 25/14 A3021 RMK A01 T02450140  RH  052%=      5-min Rain = 0
KSB1 141313Z 34002KT 25/14 A3021 RMK A01 T02450139  RH  052%=      5-min Rain = 0
KSB1 141314Z 34002KT 25/14 A3021 RMK A01 T02460140  RH  052%=      5-min Rain = 0
KSB1 141315Z 34002KT 25/14 A3021 RMK A01 T02460140  RH  052%=      5-min Rain = 0
KSB1 141316Z 34002KT 25/14 A3021 RMK A01 T02460140  RH  051%=      5-min Rain = 0
KSB1 141317Z 34002KT 25/14 A3022 RMK A01 T02460140  RH  051%=      5-min Rain = 0
KSB1 141318Z 36003KT 25/14 A3022 RMK A01 T02460140  RH  051%=      5-min Rain = 0
KSB1 141319Z 00002KT 25/14 A3022 RMK A01 T02470139  RH  051%=      5-min Rain = 0
KSB1 141320Z 00003KT 25/14 A3022 RMK A01 T02470140  RH  051%=      5-min Rain = 0
KSB1 141321Z 00002KT 25/14 A3022 RMK A01 T02460140  RH  051%=      5-min Rain = 0
KSB1 141322Z 35002KT 25/14 A3022 RMK A01 T02470140  RH  051%=      5-min Rain = 0
KSB1 141323Z 36002KT 25/14 A3022 RMK A01 T02470139  RH  051%=      5-min Rain = 0
KSB1 141324Z 00003KT 25/14 A3022 RMK A01 T02470139  RH  051%=      5-min Rain = 0
KSB1 141325Z 01002KT 25/14 A3022 RMK A01 T02470138  RH  051%=      5-min Rain = 0
KSB1 141326Z 01003KT 25/14 A3022 RMK A01 T02470138  RH  051%=      5-min Rain = 0
KSB1 141327Z 01002KT 25/14 A3022 RMK A01 T02460138  RH  051%=      5-min Rain = 0
KSB1 141328Z 02002KT 25/14 A3022 RMK A01 T02470139  RH  051%=      5-min Rain = 0
KSB1 141329Z 01002KT 25/14 A3022 RMK A01 T02470138  RH  051%=      5-min Rain = 0
KSB1 141330Z 01002KT 25/14 A3022 RMK A01 T02470137  RH  050%=      5-min Rain = 0
KSB1 141331Z 01002KT 25/14 A3022 RMK A01 T02470138  RH  051%=      5-min Rain = 0
KSB1 141332Z 01002KT 25/14 A3022 RMK A01 T02470138  RH  051%=      5-min Rain = 0
KSB1 141333Z 02002KT 25/14 A3022 RMK A01 T02480139  RH  050%=      5-min Rain = 0
KSB1 141334Z 02002KT 25/14 A3022 RMK A01 T02490139  RH  050%=      5-min Rain = 0
KSB1 141335Z 02002KT 25/14 A3022 RMK A01 T02500138  RH  050%=      5-min Rain = 0
KSB1 141336Z 02003KT 25/14 A3022 RMK A01 T02510138  RH  049%=      5-min Rain = 0
KSB1 141337Z 02002KT 25/14 A3023 RMK A01 T02510137  RH  049%=      5-min Rain = 0
KSB1 141338Z 03002KT 25/14 A3023 RMK A01 T02510137  RH  049%=      5-min Rain = 0
KSB1 141339Z 03002KT 25/14 A3023 RMK A01 T02510137  RH  049%=      5-min Rain = 0
KSB1 141340Z 02001KT 25/14 A3023 RMK A01 T02520137  RH  049%=      5-min Rain = 0
KSB1 141341Z 01001KT 25/14 A3023 RMK A01 T02530138  RH  049%=      5-min Rain = 0
KSB1 141342Z 03001KT 26/14 A3023 RMK A01 T02550138  RH  048%=      5-min Rain = 0
KSB1 141343Z 06001KT 26/14 A3023 RMK A01 T02560138  RH  048%=      5-min Rain = 0
KSB1 141344Z 06002KT 26/14 A3023 RMK A01 T02570138  RH  048%=      5-min Rain = 0
KSB1 141345Z 04002KT 26/14 A3023 RMK A01 T02570137  RH  048%=      5-min Rain = 0
KSB1 141346Z 02003KT 26/14 A3023 RMK A01 T02570137  RH  047%=      5-min Rain = 0
KSB1 141347Z 04003KT 26/14 A3023 RMK A01 T02580138  RH  047%=      5-min Rain = 0
KSB1 141348Z 04003KT 26/14 A3023 RMK A01 T02590138  RH  047%=      5-min Rain = 0
KSB1 141349Z 04004KT 26/14 A3023 RMK A01 T02600138  RH  047%=      5-min Rain = 0
KSB1 141350Z 04004KT 26/14 A3023 RMK A01 T02590137  RH  047%=      5-min Rain = 0
KSB1 141351Z 03004KT 26/14 A3023 RMK A01 T02570137  RH  048%=      5-min Rain = 0
KSB1 141352Z 03004KT 26/14 A3023 RMK A01 T02570137  RH  047%=      5-min Rain = 0
KSB1 141353Z 02005KT 26/14 A3023 RMK A01 T02570137  RH  047%=      5-min Rain = 0
KSB1 141354Z 03004KT 26/14 A3023 RMK A01 T02570137  RH  047%=      5-min Rain = 0
KSB1 141355Z 02004KT 26/14 A3023 RMK A01 T02570137  RH  047%=      5-min Rain = 0
KSB1 141356Z 04004KT 26/14 A3023 RMK A01 T02580135  RH  047%=      5-min Rain = 0
KSB1 141357Z 04005KT 26/14 A3023 RMK A01 T02590136  RH  047%=      5-min Rain = 0
KSB1 141358Z 03005KT 26/14 A3024 RMK A01 T02580136  RH  047%=      5-min Rain = 0
KSB1 141359Z 03005KT 26/14 A3024 RMK A01 T02570136  RH  047%=      5-min Rain = 0
KSB1 141400Z 02006KT 26/14 A3024 RMK A01 T02560136  RH  047%=      5-min Rain = 0
KSB1 141401Z 03005KT 26/14 A3024 RMK A01 T02560136  RH  047%=      5-min Rain = 0
KSB1 141402Z 03006KT 26/14 A3024 RMK A01 T02570137  RH  047%=      5-min Rain = 0
KSB1 141403Z 03005KT 26/14 A3024 RMK A01 T02560137  RH  048%=      5-min Rain = 0
KSB1 141404Z 03005KT 26/14 A3024 RMK A01 T02560137  RH  048%=      5-min Rain = 0
KSB1 141405Z 03005KT 26/14 A3024 RMK A01 T02570138  RH  048%=      5-min Rain = 0
KSB1 141406Z 03005KT 26/14 A3024 RMK A01 T02580138  RH  047%=      5-min Rain = 0
KSB1 141407Z 04004KT 26/14 A3024 RMK A01 T02590136  RH  047%=      5-min Rain = 0
KSB1 141408Z 03004KT 26/14 A3024 RMK A01 T02600136  RH  047%=      5-min Rain = 0
KSB1 141409Z 03004KT 26/14 A3024 RMK A01 T02600137  RH  047%=      5-min Rain = 0
KSB1 141410Z 03005KT 26/13 A3024 RMK A01 T02610134  RH  046%=      5-min Rain = 0
KSB1 141411Z 02005KT 26/13 A3024 RMK A01 T02620132  RH  045%=      5-min Rain = 0
KSB1 141412Z 01005KT 26/13 A3024 RMK A01 T02640131  RH  044%=      5-min Rain = 0
KSB1 141413Z 04005KT 26/13 A3024 RMK A01 T02640132  RH  044%=      5-min Rain = 0
KSB1 141414Z 03005KT 26/13 A3024 RMK A01 T02640132  RH  044%=      5-min Rain = 0
KSB1 141415Z 04005KT 26/13 A3024 RMK A01 T02640132  RH  044%=      5-min Rain = 0
KSB1 141416Z 04005KT 26/13 A3024 RMK A01 T02640133  RH  044%=      5-min Rain = 0
KSB1 141417Z 03005KT 26/13 A3024 RMK A01 T02640132  RH  044%=      5-min Rain = 0
KSB1 141418Z 03005KT 26/13 A3024 RMK A01 T02630132  RH  044%=      5-min Rain = 0
KSB1 141419Z 03005KT 26/13 A3024 RMK A01 T02640132  RH  044%=      5-min Rain = 0
KSB1 141420Z 03004KT 27/13 A3024 RMK A01 T02650133  RH  044%=      5-min Rain = 0
KSB1 141421Z 03005KT 27/13 A3024 RMK A01 T02670133  RH  044%=      5-min Rain = 0
KSB1 141422Z 04006KT 27/13 A3024 RMK A01 T02690134  RH  043%=      5-min Rain = 0
KSB1 141423Z 04006KT 27/13 A3024 RMK A01 T02710134  RH  043%=      5-min Rain = 0
KSB1 141424Z 04006KT 27/13 A3024 RMK A01 T02690134  RH  043%=      5-min Rain = 0
KSB1 141425Z 03005KT 27/13 A3025 RMK A01 T02680133  RH  043%=      5-min Rain = 0
KSB1 141426Z 03005KT 27/13 A3025 RMK A01 T02660133  RH  044%=      5-min Rain = 0
KSB1 141427Z 04005KT 27/13 A3025 RMK A01 T02660134  RH  044%=      5-min Rain = 0
KSB1 141428Z 06006KT 27/14 A3025 RMK A01 T02680135  RH  044%=      5-min Rain = 0
KSB1 141429Z 05005KT 27/14 A3025 RMK A01 T02690135  RH  044%=      5-min Rain = 0
KSB1 141430Z 05005KT 27/14 A3025 RMK A01 T02680135  RH  044%=      5-min Rain = 0
KSB1 141431Z 05006KT 27/14 A3025 RMK A01 T02680135  RH  044%=      5-min Rain = 0
KSB1 141432Z 06006KT 27/13 A3025 RMK A01 T02670134  RH  044%=      5-min Rain = 0
KSB1 141433Z 07007KT 27/13 A3025 RMK A01 T02670134  RH  044%=      5-min Rain = 0
KSB1 141434Z 05007KT 27/14 A3025 RMK A01 T02680135  RH  044%=      5-min Rain = 0
KSB1 141435Z 06006KT 27/14 A3025 RMK A01 T02680135  RH  044%=      5-min Rain = 0
KSB1 141436Z 07007KT 27/14 A3025 RMK A01 T02670135  RH  044%=      5-min Rain = 0
KSB1 141437Z 06005KT 27/13 A3025 RMK A01 T02670134  RH  044%=      5-min Rain = 0
KSB1 141438Z 07005KT 27/14 A3025 RMK A01 T02670136  RH  044%=      5-min Rain = 0
KSB1 141439Z 09006KT 27/13 A3025 RMK A01 T02680134  RH  044%=      5-min Rain = 0
KSB1 141440Z 09008KT 27/14 A3025 RMK A01 T02700135  RH  043%=      5-min Rain = 0
KSB1 141441Z 07005KT 27/13 A3025 RMK A01 T02710134  RH  043%=      5-min Rain = 0
KSB1 141442Z 09007KT 27/14 A3025 RMK A01 T02700135  RH  043%=      5-min Rain = 0
KSB1 141443Z 09005KT 27/14 A3025 RMK A01 T02690135  RH  044%=      5-min Rain = 0
KSB1 141444Z 07005KT 27/14 A3025 RMK A01 T02680135  RH  044%=      5-min Rain = 0
KSB1 141445Z 07007KT 27/14 A3025 RMK A01 T02690136  RH  044%=      5-min Rain = 0
KSB1 141446Z 06006KT 27/14 A3025 RMK A01 T02680136  RH  044%=      5-min Rain = 0
KSB1 141447Z 06005KT 27/14 A3025 RMK A01 T02690136  RH  044%=      5-min Rain = 0
KSB1 141448Z 06005KT 27/14 A3025 RMK A01 T02700136  RH  044%=      5-min Rain = 0
KSB1 141449Z 07006KT 27/14 A3025 RMK A01 T02710135  RH  043%=      5-min Rain = 0
KSB1 141450Z 10006KT 27/14 A3025 RMK A01 T02700135  RH  043%=      5-min Rain = 0
KSB1 141451Z 09006KT 27/14 A3025 RMK A01 T02710135  RH  043%=      5-min Rain = 0
KSB1 141452Z 09006KT 27/14 A3025 RMK A01 T02700136  RH  044%=      5-min Rain = 0
KSB1 141453Z 10007KT 27/14 A3025 RMK A01 T02700136  RH  044%=      5-min Rain = 0
KSB1 141454Z 10006KT 27/14 A3025 RMK A01 T02700136  RH  044%=      5-min Rain = 0
KSB1 141455Z 11004KT 27/14 A3025 RMK A01 T02690137  RH  044%=      5-min Rain = 0
KSB1 141456Z 09005KT 27/14 A3025 RMK A01 T02700138  RH  044%=      5-min Rain = 0
KSB1 141457Z 09007KT 27/14 A3025 RMK A01 T02720138  RH  044%=      5-min Rain = 0
KSB1 141458Z 09007KT 27/14 A3025 RMK A01 T02730138  RH  044%=      5-min Rain = 0
KSB1 141459Z 08006KT 27/14 A3025 RMK A01 T02730137  RH  043%=      5-min Rain = 0
KSB1 141500Z 07007KT 27/14 A3025 RMK A01 T02720137  RH  043%=      5-min Rain = 0
KSB1 141501Z 09006KT 27/14 A3025 RMK A01 T02720137  RH  043%=      5-min Rain = 0
KSB1 141502Z 09005KT 27/14 A3025 RMK A01 T02730137  RH  043%=      5-min Rain = 0
KSB1 141503Z 08005KT 27/14 A3025 RMK A01 T02730137  RH  043%=      5-min Rain = 0
KSB1 141504Z 10005KT 27/14 A3025 RMK A01 T02740137  RH  043%=      5-min Rain = 0
KSB1 141505Z 10005KT 27/14 A3025 RMK A01 T02740137  RH  043%=      5-min Rain = 0
KSB1 141506Z 10005KT 27/14 A3025 RMK A01 T02740138  RH  043%=      5-min Rain = 0
KSB1 141507Z 11004KT 27/14 A3025 RMK A01 T02740138  RH  043%=      5-min Rain = 0
KSB1 141508Z 11005KT 27/14 A3025 RMK A01 T02740138  RH  043%=      5-min Rain = 0
KSB1 141509Z 09006KT 27/14 A3025 RMK A01 T02740137  RH  043%=      5-min Rain = 0
KSB1 141510Z 08005KT 27/14 A3025 RMK A01 T02740139  RH  043%=      5-min Rain = 0
KSB1 141511Z 11006KT 28/14 A3025 RMK A01 T02790139  RH  042%=      5-min Rain = 0
KSB1 141512Z 13005KT 28/14 A3025 RMK A01 T02800138  RH  042%=      5-min Rain = 0
KSB1 141513Z 11004KT 28/14 A3025 RMK A01 T02790139  RH  042%=      5-min Rain = 0
KSB1 141514Z 10004KT 28/14 A3025 RMK A01 T02800139  RH  042%=      5-min Rain = 0
KSB1 141515Z 10005KT 28/14 A3025 RMK A01 T02820140  RH  042%=      5-min Rain = 0
KSB1 141516Z 11005KT 28/14 A3025 RMK A01 T02810140  RH  042%=      5-min Rain = 0
KSB1 141517Z 11005KT 28/14 A3025 RMK A01 T02830140  RH  042%=      5-min Rain = 0
KSB1 141518Z 11003KT 28/14 A3025 RMK A01 T02840140  RH  041%=      5-min Rain = 0
KSB1 141519Z 12006KT 28/14 A3025 RMK A01 T02840141  RH  041%=      5-min Rain = 0
KSB1 141520Z 12007KT 29/14 A3025 RMK A01 T02860140  RH  041%=      5-min Rain = 0
KSB1 141521Z 10005KT 28/14 A3025 RMK A01 T02840138  RH  041%=      5-min Rain = 0
KSB1 141522Z 11005KT 28/14 A3025 RMK A01 T02820139  RH  041%=      5-min Rain = 0
KSB1 141523Z 08006KT 28/14 A3025 RMK A01 T02810140  RH  042%=      5-min Rain = 0
KSB1 141524Z 08005KT 28/14 A3025 RMK A01 T02830141  RH  042%=      5-min Rain = 0
KSB1 141525Z 11006KT 29/14 A3025 RMK A01 T02850141  RH  041%=      5-min Rain = 0
KSB1 141526Z 13005KT 29/14 A3025 RMK A01 T02870142  RH  041%=      5-min Rain = 0
KSB1 141527Z 10006KT 29/14 A3025 RMK A01 T02870141  RH  041%=      5-min Rain = 0
KSB1 141528Z 11006KT 29/14 A3025 RMK A01 T02870138  RH  040%=      5-min Rain = 0
KSB1 141529Z 11005KT 28/14 A3025 RMK A01 T02840138  RH  041%=      5-min Rain = 0
KSB1 141530Z 09005KT 28/14 A3025 RMK A01 T02820139  RH  041%=      5-min Rain = 0
KSB1 141531Z 11006KT 28/14 A3025 RMK A01 T02840140  RH  041%=      5-min Rain = 0
KSB1 141532Z 13005KT 29/14 A3026 RMK A01 T02880139  RH  040%=      5-min Rain = 0
KSB1 141533Z 12005KT 29/14 A3025 RMK A01 T02880139  RH  040%=      5-min Rain = 0
KSB1 141534Z 10009KT 29/14 A3025 RMK A01 T02890141  RH  040%=      5-min Rain = 0
KSB1 141535Z 11007KT 29/14 A3026 RMK A01 T02900141  RH  040%=      5-min Rain = 0
KSB1 141536Z 11006KT 29/14 A3026 RMK A01 T02890140  RH  040%=      5-min Rain = 0
KSB1 141537Z 13004KT 29/14 A3026 RMK A01 T02860141  RH  041%=      5-min Rain = 0
KSB1 141538Z 10007KT 29/14 A3026 RMK A01 T02850142  RH  041%=      5-min Rain = 0
KSB1 141539Z 08005KT 29/14 A3026 RMK A01 T02850141  RH  041%=      5-min Rain = 0
KSB1 141540Z 08005KT 28/14 A3026 RMK A01 T02840141  RH  041%=      5-min Rain = 0
KSB1 141541Z 09004KT 28/14 A3026 RMK A01 T02840143  RH  042%=      5-min Rain = 0
KSB1 141542Z 12005KT 29/14 A3026 RMK A01 T02850141  RH  041%=      5-min Rain = 0
KSB1 141543Z 12005KT 29/14 A3026 RMK A01 T02880141  RH  041%=      5-min Rain = 0
KSB1 141544Z 11008KT 29/14 A3026 RMK A01 T02900143  RH  041%=      5-min Rain = 0
KSB1 141545Z 10007KT 29/14 A3026 RMK A01 T02910143  RH  040%=      5-min Rain = 0
KSB1 141546Z 12007KT 29/14 A3026 RMK A01 T02920142  RH  040%=      5-min Rain = 0
KSB1 141547Z 11006KT 29/14 A3026 RMK A01 T02900139  RH  040%=      5-min Rain = 0
KSB1 141548Z 11005KT 29/14 A3026 RMK A01 T02880140  RH  040%=      5-min Rain = 0
KSB1 141549Z 11007KT 29/14 A3026 RMK A01 T02890140  RH  040%=      5-min Rain = 0
KSB1 141550Z 11007KT 29/14 A3026 RMK A01 T02900137  RH  039%=      5-min Rain = 0
KSB1 141551Z 10008KT 29/14 A3026 RMK A01 T02890136  RH  039%=      5-min Rain = 0
KSB1 141552Z 09006KT 29/14 A3026 RMK A01 T02890138  RH  040%=      5-min Rain = 0
KSB1 141553Z 11008KT 29/14 A3026 RMK A01 T02890140  RH  040%=      5-min Rain = 0
KSB1 141554Z 10007KT 29/14 A3026 RMK A01 T02900138  RH  039%=      5-min Rain = 0
KSB1 141555Z 10007KT 29/14 A3026 RMK A01 T02910138  RH  039%=      5-min Rain = 0
KSB1 141556Z 06004KT 29/14 A3026 RMK A01 T02910139  RH  039%=      5-min Rain = 0
KSB1 141557Z 06004KT 29/14 A3026 RMK A01 T02910138  RH  039%=      5-min Rain = 0
KSB1 141558Z 08010KT 29/14 A3026 RMK A01 T02910141  RH  040%=      5-min Rain = 0
KSB1 141559Z 08007KT 29/14 A3026 RMK A01 T02920139  RH  039%=      5-min Rain = 0
KSB1 141600Z 10007KT 29/14 A3026 RMK A01 T02910140  RH  039%=      5-min Rain = 0
KSB1 141601Z 09005KT 29/14 A3026 RMK A01 T02910138  RH  039%=      5-min Rain = 0
KSB1 141602Z 09005KT 29/14 A3026 RMK A01 T02900138  RH  039%=      5-min Rain = 0
KSB1 141603Z 10007KT 29/14 A3026 RMK A01 T02900136  RH  039%=      5-min Rain = 0
KSB1 141604Z 09005KT 29/14 A3026 RMK A01 T02900136  RH  039%=      5-min Rain = 0
KSB1 141605Z 09003KT 29/14 A3026 RMK A01 T02910136  RH  039%=      5-min Rain = 0
KSB1 141606Z 10003KT 29/14 A3026 RMK A01 T02900137  RH  039%=      5-min Rain = 0
KSB1 141607Z 10005KT 29/14 A3026 RMK A01 T02910138  RH  039%=      5-min Rain = 0
KSB1 141608Z 09007KT 29/14 A3026 RMK A01 T02940139  RH  039%=      5-min Rain = 0
KSB1 141609Z 07006KT 30/13 A3027 RMK A01 T02950134  RH  037%=      5-min Rain = 0
KSB1 141610Z 08004KT 30/13 A3027 RMK A01 T02950134  RH  037%=      5-min Rain = 0
KSB1 141611Z 08004KT 30/14 A3027 RMK A01 T02950137  RH  038%=      5-min Rain = 0
KSB1 141612Z 05006KT 30/14 A3027 RMK A01 T02950135  RH  038%=      5-min Rain = 0
KSB1 141613Z 05006KT 30/14 A3027 RMK A01 T02950136  RH  038%=      5-min Rain = 0
KSB1 141614Z 04004KT 30/14 A3026 RMK A01 T02960135  RH  037%=      5-min Rain = 0
KSB1 141615Z 07006KT 30/13 A3027 RMK A01 T02980133  RH  037%=      5-min Rain = 0
KSB1 141616Z 08007KT 30/13 A3027 RMK A01 T03000126  RH  034%=      5-min Rain = 0
KSB1 141617Z 07005KT 30/13 A3027 RMK A01 T03000129  RH  035%=      5-min Rain = 0
KSB1 141618Z 08006KT 30/13 A3027 RMK A01 T03000129  RH  035%=      5-min Rain = 0
KSB1 141619Z 09004KT 30/13 A3027 RMK A01 T03000127  RH  035%=      5-min Rain = 0
KSB1 141620Z 07005KT 30/13 A3027 RMK A01 T03000129  RH  035%=      5-min Rain = 0
KSB1 141621Z 06006KT 30/13 A3027 RMK A01 T03040129  RH  034%=      5-min Rain = 0
KSB1 141622Z 07008KT 31/13 A3027 RMK A01 T03080130  RH  034%=      5-min Rain = 0
KSB1 141623Z 07010KT 31/13 A3027 RMK A01 T03100128  RH  033%=      5-min Rain = 0
KSB1 141624Z 06008KT 31/13 A3027 RMK A01 T03050129  RH  034%=      5-min Rain = 0
KSB1 141625Z 08008KT 30/13 A3027 RMK A01 T03000131  RH  036%=      5-min Rain = 0
KSB1 141626Z 08008KT 30/13 A3027 RMK A01 T03000133  RH  036%=      5-min Rain = 0
KSB1 141627Z 07005KT 30/13 A3027 RMK A01 T03020134  RH  036%=      5-min Rain = 0
KSB1 141628Z 11005KT 30/13 A3027 RMK A01 T03010134  RH  036%=      5-min Rain = 0
KSB1 141629Z 13003KT 30/13 A3027 RMK A01 T03010133  RH  036%=      5-min Rain = 0
KSB1 141630Z 09004G9KT 30/13 A3027 RMK A01 T03020133  RH  036%=      5-min Rain = 0
KSB1 141631Z 08008KT 30/13 A3027 RMK A01 T03040134  RH  035%=      5-min Rain = 0
KSB1 141632Z 06010G15KT 31/14 A3027 RMK A01 T03050135  RH  036%=      5-min Rain = 0
KSB1 141633Z 07008KT 30/14 A3027 RMK A01 T03030136  RH  036%=      5-min Rain = 0
KSB1 141634Z 07009KT 30/14 A3027 RMK A01 T03020136  RH  036%=      5-min Rain = 0
KSB1 141635Z 07008KT 30/14 A3027 RMK A01 T03030135  RH  036%=      5-min Rain = 0
KSB1 141636Z 07006KT 30/14 A3027 RMK A01 T03000135  RH  036%=      5-min Rain = 0
KSB1 141637Z 07005KT 30/14 A3027 RMK A01 T02990135  RH  036%=      5-min Rain = 0
KSB1 141638Z 05006KT 30/14 A3027 RMK A01 T03020135  RH  036%=      5-min Rain = 0
KSB1 141639Z 05004KT 30/14 A3027 RMK A01 T03020136  RH  036%=      5-min Rain = 0
KSB1 141640Z 06003KT 30/14 A3027 RMK A01 T03020136  RH  036%=      5-min Rain = 0
KSB1 141641Z 04003KT 30/14 A3027 RMK A01 T03010135  RH  036%=      5-min Rain = 0
KSB1 141642Z 04004KT 30/13 A3026 RMK A01 T03000134  RH  036%=      5-min Rain = 0
KSB1 141643Z 08005KT 30/14 A3027 RMK A01 T03010135  RH  036%=      5-min Rain = 0
KSB1 141644Z 13006KT 30/13 A3027 RMK A01 T03040133  RH  035%=      5-min Rain = 0
KSB1 141645Z 12008KT 31/13 A3026 RMK A01 T03070133  RH  035%=      5-min Rain = 0
KSB1 141646Z 10008KT 31/13 A3026 RMK A01 T03070132  RH  034%=      5-min Rain = 0
KSB1 141647Z 08006KT 31/13 A3027 RMK A01 T03060132  RH  035%=      5-min Rain = 0
KSB1 141648Z 09004G9KT 31/13 A3027 RMK A01 T03050132  RH  035%=      5-min Rain = 0
KSB1 141649Z 08008KT 30/13 A3027 RMK A01 T03040131  RH  035%=      5-min Rain = 0
KSB1 141650Z 07005G12KT 30/13 A3027 RMK A01 T03040131  RH  035%=      5-min Rain = 0
KSB1 141651Z 08011KT 30/13 A3027 RMK A01 T03030131  RH  035%=      5-min Rain = 0
KSB1 141652Z 08009KT 31/13 A3027 RMK A01 T03060131  RH  034%=      5-min Rain = 0
KSB1 141653Z 07008KT 31/13 A3027 RMK A01 T03080132  RH  034%=      5-min Rain = 0
KSB1 141654Z 07009KT 31/13 A3027 RMK A01 T03100133  RH  034%=      5-min Rain = 0
KSB1 141655Z 08012KT 31/13 A3027 RMK A01 T03140133  RH  033%=      5-min Rain = 0
KSB1 141656Z 09014KT 32/13 A3027 RMK A01 T03150132  RH  033%=      5-min Rain = 0
KSB1 141657Z 09009KT 31/13 A3027 RMK A01 T03120131  RH  033%=      5-min Rain = 0
KSB1 141658Z 09007KT 31/13 A3027 RMK A01 T03090130  RH  033%=      5-min Rain = 0
KSB1 141659Z 08008KT 31/13 A3027 RMK A01 T03080130  RH  034%=      5-min Rain = 0
KSB1 141700Z 08012KT 31/13 A3027 RMK A01 T03100131  RH  033%=      5-min Rain = 0
KSB1 141701Z 07010KT 31/13 A3027 RMK A01 T03130131  RH  033%=      5-min Rain = 0
KSB1 141702Z 09014KT 32/13 A3027 RMK A01 T03170132  RH  032%=      5-min Rain = 0
KSB1 141703Z 10011KT 32/13 A3027 RMK A01 T03170130  RH  032%=      5-min Rain = 0
KSB1 141704Z 08009KT 31/13 A3027 RMK A01 T03140128  RH  032%=      5-min Rain = 0
KSB1 141705Z 08006KT 31/13 A3027 RMK A01 T03120129  RH  033%=      5-min Rain = 0
KSB1 141706Z 11008KT 31/13 A3027 RMK A01 T03140129  RH  032%=      5-min Rain = 0
KSB1 141707Z 12008KT 31/13 A3027 RMK A01 T03130128  RH  032%=      5-min Rain = 0
KSB1 141708Z 12008KT 31/13 A3027 RMK A01 T03110128  RH  033%=      5-min Rain = 0
KSB1 141709Z 12011KT 31/13 A3027 RMK A01 T03090127  RH  033%=      5-min Rain = 0
KSB1 141710Z 10011KT 31/13 A3027 RMK A01 T03120130  RH  033%=      5-min Rain = 0
KSB1 141711Z 10011KT 31/13 A3027 RMK A01 T03140129  RH  032%=      5-min Rain = 0
KSB1 141712Z 10013KT 31/13 A3027 RMK A01 T03120128  RH  033%=      5-min Rain = 0
KSB1 141713Z 08011KT 31/13 A3027 RMK A01 T03090128  RH  033%=      5-min Rain = 0
KSB1 141714Z 10005KT 31/13 A3027 RMK A01 T03070127  RH  033%=      5-min Rain = 0
KSB1 141715Z 13008G15KT 31/13 A3027 RMK A01 T03070127  RH  033%=      5-min Rain = 0
KSB1 141716Z 12011KT 31/13 A3027 RMK A01 T03100128  RH  033%=      5-min Rain = 0
KSB1 141717Z 13008KT 31/13 A3027 RMK A01 T03080126  RH  033%=      5-min Rain = 0
KSB1 141718Z 15007KT 31/13 A3026 RMK A01 T03090127  RH  033%=      5-min Rain = 0
KSB1 141719Z 14005KT 31/13 A3026 RMK A01 T03090126  RH  033%=      5-min Rain = 0
KSB1 141720Z 14007KT 31/13 A3027 RMK A01 T03090127  RH  033%=      5-min Rain = 0
KSB1 141721Z 12013KT 31/13 A3026 RMK A01 T03120128  RH  033%=      5-min Rain = 0
KSB1 141722Z 10013KT 32/13 A3026 RMK A01 T03150129  RH  032%=      5-min Rain = 0
KSB1 141723Z 10014KT 32/13 A3026 RMK A01 T03160129  RH  032%=      5-min Rain = 0
KSB1 141724Z 10012KT 32/13 A3027 RMK A01 T03150128  RH  032%=      5-min Rain = 0
KSB1 141725Z 09007KT 31/13 A3026 RMK A01 T03120128  RH  032%=      5-min Rain = 0
KSB1 141726Z 11005KT 31/13 A3026 RMK A01 T03110128  RH  033%=      5-min Rain = 0
KSB1 141727Z 11008KT 31/13 A3026 RMK A01 T03100128  RH  033%=      5-min Rain = 0
KSB1 141728Z 11011KT 31/13 A3026 RMK A01 T03120128  RH  033%=      5-min Rain = 0
KSB1 141729Z 09011KT 32/13 A3026 RMK A01 T03150129  RH  032%=      5-min Rain = 0
KSB1 141730Z 09013KT 32/13 A3026 RMK A01 T03170130  RH  032%=      5-min Rain = 0
KSB1 141731Z 09010KT 32/13 A3026 RMK A01 T03160129  RH  032%=      5-min Rain = 0
KSB1 141732Z 11009KT 32/13 A3026 RMK A01 T03150129  RH  032%=      5-min Rain = 0
KSB1 141733Z 11009KT 31/13 A3026 RMK A01 T03140129  RH  032%=      5-min Rain = 0
KSB1 141734Z 10011KT 32/13 A3026 RMK A01 T03160129  RH  032%=      5-min Rain = 0
KSB1 141735Z 09012KT 32/13 A3026 RMK A01 T03170129  RH  032%=      5-min Rain = 0
KSB1 141736Z 08013KT 32/13 A3026 RMK A01 T03160129  RH  032%=      5-min Rain = 0
KSB1 141737Z 08008KT 32/13 A3026 RMK A01 T03150128  RH  032%=      5-min Rain = 0
KSB1 141738Z 12008KT 32/13 A3026 RMK A01 T03160130  RH  032%=      5-min Rain = 0
KSB1 141739Z 11008KT 32/13 A3026 RMK A01 T03190129  RH  031%=      5-min Rain = 0
KSB1 141740Z 11008KT 32/13 A3026 RMK A01 T03170129  RH  032%=      5-min Rain = 0
KSB1 141741Z 09014KT 32/13 A3026 RMK A01 T03190129  RH  032%=      5-min Rain = 0
KSB1 141742Z 07013KT 32/13 A3027 RMK A01 T03190130  RH  032%=      5-min Rain = 0
KSB1 141743Z 07008G13KT 32/13 A3027 RMK A01 T03170129  RH  032%=      5-min Rain = 0
KSB1 141744Z 10004KT 31/13 A3027 RMK A01 T03130129  RH  032%=      5-min Rain = 0
KSB1 141745Z 09003KT 31/13 A3027 RMK A01 T03110128  RH  033%=      5-min Rain = 0
KSB1 141746Z 12009KT 31/13 A3027 RMK A01 T03100128  RH  033%=      5-min Rain = 0
KSB1 141747Z 12012KT 31/13 A3027 RMK A01 T03120127  RH  032%=      5-min Rain = 0
KSB1 141748Z 12008KT 31/13 A3027 RMK A01 T03120128  RH  032%=      5-min Rain = 0
KSB1 141749Z 11005G15KT 31/13 A3027 RMK A01 T03110127  RH  033%=      5-min Rain = 0
KSB1 141750Z 10013KT 31/13 A3027 RMK A01 T03140131  RH  033%=      5-min Rain = 0
KSB1 141751Z 11012KT 32/13 A3027 RMK A01 T03230131  RH  031%=      5-min Rain = 0
KSB1 141752Z 12009KT 32/13 A3027 RMK A01 T03240130  RH  031%=      5-min Rain = 0
KSB1 141753Z 10011G16KT 32/13 A3027 RMK A01 T03200128  RH  031%=      5-min Rain = 0
KSB1 141754Z 08015KT 32/13 A3026 RMK A01 T03190127  RH  031%=      5-min Rain = 0
KSB1 141755Z 09011KT 32/13 A3026 RMK A01 T03220128  RH  031%=      5-min Rain = 0
KSB1 141756Z 09013KT 33/13 A3026 RMK A01 T03270128  RH  030%=      5-min Rain = 0
KSB1 141757Z 08009KT 32/13 A3026 RMK A01 T03240127  RH  030%=      5-min Rain = 0
KSB1 141758Z 09007KT 32/13 A3026 RMK A01 T03220128  RH  031%=      5-min Rain = 0
KSB1 141759Z 12009G14KT 32/13 A3026 RMK A01 T03210128  RH  031%=      5-min Rain = 0
KSB1 141800Z 11008KT 32/13 A3026 RMK A01 T03200127  RH  031%=      5-min Rain = 0
KSB1 141801Z 11008KT 32/13 A3026 RMK A01 T03160127  RH  032%=      5-min Rain = 0
KSB1 141802Z 13012KT 32/13 A3026 RMK A01 T03200129  RH  031%=      5-min Rain = 0
KSB1 141803Z 09010KT 32/13 A3026 RMK A01 T03240129  RH  031%=      5-min Rain = 0
KSB1 141804Z 10012KT 33/13 A3026 RMK A01 T03270129  RH  030%=      5-min Rain = 0
KSB1 141805Z 09015KT 32/13 A3026 RMK A01 T03230127  RH  030%=      5-min Rain = 0
KSB1 141806Z 07014KT 32/13 A3026 RMK A01 T03200128  RH  031%=      5-min Rain = 0
KSB1 141807Z 08013KT 32/13 A3026 RMK A01 T03180128  RH  031%=      5-min Rain = 0
KSB1 141808Z 08013KT 32/13 A3026 RMK A01 T03170128  RH  032%=      5-min Rain = 0
KSB1 141809Z 07015KT 32/13 A3026 RMK A01 T03190129  RH  032%=      5-min Rain = 0
KSB1 141810Z 07011KT 32/13 A3026 RMK A01 T03220130  RH  031%=      5-min Rain = 0
KSB1 141811Z 09009G14KT 32/13 A3026 RMK A01 T03200129  RH  031%=      5-min Rain = 0
KSB1 141812Z 07005KT 32/13 A3026 RMK A01 T03170130  RH  032%=      5-min Rain = 0
KSB1 141813Z 05010KT 32/13 A3026 RMK A01 T03180130  RH  032%=      5-min Rain = 0
KSB1 141814Z 04015KT 33/13 A3026 RMK A01 T03250133  RH  031%=      5-min Rain = 0
KSB1 141815Z 05013KT 32/13 A3026 RMK A01 T03240132  RH  031%=      5-min Rain = 0
KSB1 141816Z 07016KT 32/13 A3025 RMK A01 T03210132  RH  032%=      5-min Rain = 0
KSB1 141817Z 07016KT 32/13 A3026 RMK A01 T03240133  RH  031%=      5-min Rain = 0
KSB1 141818Z 07012KT 33/13 A3026 RMK A01 T03280134  RH  031%=      5-min Rain = 0
KSB1 141819Z 05012KT 33/13 A3026 RMK A01 T03320134  RH  030%=      5-min Rain = 0
KSB1 141820Z 07010KT 33/13 A3026 RMK A01 T03280134  RH  031%=      5-min Rain = 0
KSB1 141821Z 08010G16KT 32/13 A3026 RMK A01 T03240133  RH  031%=      5-min Rain = 0
KSB1 141822Z 06015KT 32/13 A3026 RMK A01 T03230134  RH  032%=      5-min Rain = 0
KSB1 141823Z 06015KT 33/14 A3026 RMK A01 T03280135  RH  031%=      5-min Rain = 0
KSB1 141824Z 07016KT 33/14 A3026 RMK A01 T03290135  RH  031%=      5-min Rain = 0
KSB1 141825Z 06013KT 33/14 A3026 RMK A01 T03290135  RH  031%=      5-min Rain = 0
KSB1 141826Z 04012KT 33/14 A3026 RMK A01 T03280135  RH  031%=      5-min Rain = 0
KSB1 141827Z 05012KT 33/14 A3026 RMK A01 T03260136  RH  032%=      5-min Rain = 0
KSB1 141828Z 06011KT 33/14 A3026 RMK A01 T03260136  RH  032%=      5-min Rain = 0
KSB1 141829Z 07007KT 32/14 A3026 RMK A01 T03180135  RH  033%=      5-min Rain = 0
KSB1 141830Z 07014KT 32/14 A3026 RMK A01 T03150136  RH  034%=      5-min Rain = 0
KSB1 141831Z 05009KT 31/14 A3026 RMK A01 T03140136  RH  034%=      5-min Rain = 0
KSB1 141832Z 06008KT 31/14 A3026 RMK A01 T03140138  RH  034%=      5-min Rain = 0
KSB1 141833Z 09014G19KT 31/14 A3026 RMK A01 T03140139  RH  035%=      5-min Rain = 0
KSB1 141834Z 08015KT 32/14 A3026 RMK A01 T03150143  RH  035%=      5-min Rain = 0
KSB1 141835Z 07011G17KT 32/14 A3026 RMK A01 T03150144  RH  035%=      5-min Rain = 0
KSB1 141836Z 07013KT 32/14 A3026 RMK A01 T03150144  RH  036%=      5-min Rain = 0
KSB1 141837Z 06012G17KT 32/14 A3026 RMK A01 T03150143  RH  035%=      5-min Rain = 0
KSB1 141838Z 06016KT 32/15 A3026 RMK A01 T03180145  RH  035%=      5-min Rain = 0
KSB1 141839Z 06015G21KT 32/15 A3025 RMK A01 T03200147  RH  035%=      5-min Rain = 0
KSB1 141840Z 06018KT 32/15 A3025 RMK A01 T03240148  RH  035%=      5-min Rain = 0
KSB1 141841Z 05018KT 32/15 A3025 RMK A01 T03240147  RH  034%=      5-min Rain = 0
KSB1 141842Z 05018KT 32/15 A3025 RMK A01 T03200147  RH  035%=      5-min Rain = 0
KSB1 141843Z 05016KT 32/14 A3025 RMK A01 T03180144  RH  035%=      5-min Rain = 0
KSB1 141844Z 05014KT 32/14 A3025 RMK A01 T03190144  RH  035%=      5-min Rain = 0
KSB1 141845Z 05012KT 32/14 A3025 RMK A01 T03200144  RH  035%=      5-min Rain = 0
KSB1 141846Z 06013KT 32/15 A3025 RMK A01 T03240147  RH  034%=      5-min Rain = 0
KSB1 141847Z 08017G23KT 33/15 A3025 RMK A01 T03290151  RH  034%=      5-min Rain = 0
KSB1 141848Z 06019KT 33/15 A3025 RMK A01 T03280150  RH  034%=      5-min Rain = 0
KSB1 141849Z 05014KT 32/15 A3025 RMK A01 T03220148  RH  035%=      5-min Rain = 0
KSB1 141850Z 06012KT 32/15 A3025 RMK A01 T03200149  RH  036%=      5-min Rain = 0
KSB1 141851Z 07016KT 32/15 A3025 RMK A01 T03190149  RH  036%=      5-min Rain = 0
KSB1 141852Z 07014KT 32/15 A3025 RMK A01 T03180149  RH  036%=      5-min Rain = 0
KSB1 141853Z 07010KT 32/15 A3025 RMK A01 T03160148  RH  036%=      5-min Rain = 0
KSB1 141854Z 07009KT 32/15 A3025 RMK A01 T03150148  RH  036%=      5-min Rain = 0
KSB1 141855Z 07009KT 31/15 A3025 RMK A01 T03140149  RH  037%=      5-min Rain = 0
KSB1 141856Z 06012KT 31/15 A3025 RMK A01 T03130148  RH  037%=      5-min Rain = 0
KSB1 141857Z 06011KT 31/15 A3025 RMK A01 T03140149  RH  037%=      5-min Rain = 0
KSB1 141858Z 05014KT 31/15 A3025 RMK A01 T03140149  RH  037%=      5-min Rain = 0
KSB1 141859Z 05015KT 32/15 A3025 RMK A01 T03150149  RH  037%=      5-min Rain = 0
KSB1 141900Z 06018G24KT 31/15 A3025 RMK A01 T03140150  RH  037%=      5-min Rain = 0
KSB1 141901Z 05017KT 31/15 A3025 RMK A01 T03140151  RH  037%=      5-min Rain = 0
KSB1 141902Z 04015KT 31/15 A3025 RMK A01 T03130152  RH  038%=      5-min Rain = 0
KSB1 141903Z 06014KT 31/15 A3025 RMK A01 T03110153  RH  038%=      5-min Rain = 0
KSB1 141904Z 05009KT 31/15 A3025 RMK A01 T03100153  RH  039%=      5-min Rain = 0
KSB1 141905Z 07010KT 31/15 A3025 RMK A01 T03100152  RH  038%=      5-min Rain = 0
KSB1 141906Z 06010KT 31/15 A3025 RMK A01 T03110154  RH  039%=      5-min Rain = 0
KSB1 141907Z 07011KT 31/16 A3025 RMK A01 T03120156  RH  039%=      5-min Rain = 0
KSB1 141908Z 08011KT 31/16 A3025 RMK A01 T03130157  RH  039%=      5-min Rain = 0
KSB1 141909Z 08009KT 31/16 A3025 RMK A01 T03130156  RH  039%=      5-min Rain = 0
KSB1 141910Z 07013KT 32/16 A3025 RMK A01 T03150155  RH  038%=      5-min Rain = 0
KSB1 141911Z 07014G19KT 32/15 A3025 RMK A01 T03180154  RH  037%=      5-min Rain = 0
KSB1 141912Z 07013G18KT 32/15 A3025 RMK A01 T03160154  RH  038%=      5-min Rain = 0
KSB1 141913Z 07012KT 32/15 A3025 RMK A01 T03150154  RH  038%=      5-min Rain = 0
KSB1 141914Z 09012KT 32/16 A3025 RMK A01 T03190157  RH  038%=      5-min Rain = 0
KSB1 141915Z 08016KT 32/16 A3025 RMK A01 T03190158  RH  038%=      5-min Rain = 0
KSB1 141916Z 08014KT 32/16 A3025 RMK A01 T03170159  RH  039%=      5-min Rain = 0
KSB1 141917Z 08013KT 32/16 A3025 RMK A01 T03160159  RH  039%=      5-min Rain = 0
KSB1 141918Z 09015KT 32/16 A3025 RMK A01 T03170159  RH  038%=      5-min Rain = 0
KSB1 141919Z 08014KT 32/16 A3025 RMK A01 T03160159  RH  039%=      5-min Rain = 0
KSB1 141920Z 04016KT 32/16 A3024 RMK A01 T03170157  RH  038%=      5-min Rain = 0
KSB1 141921Z 04014KT 32/16 A3024 RMK A01 T03190158  RH  038%=      5-min Rain = 0
KSB1 141922Z 04015KT 32/16 A3024 RMK A01 T03160159  RH  039%=      5-min Rain = 0
KSB1 141923Z 04013KT 31/16 A3025 RMK A01 T03130158  RH  039%=      5-min Rain = 0
KSB1 141924Z 05015KT 31/16 A3025 RMK A01 T03130158  RH  039%=      5-min Rain = 0
KSB1 141925Z 06014KT 31/16 A3025 RMK A01 T03130158  RH  039%=      5-min Rain = 0
KSB1 141926Z 06012KT 31/16 A3025 RMK A01 T03130158  RH  039%=      5-min Rain = 0
KSB1 141927Z 08011KT 31/16 A3025 RMK A01 T03110158  RH  040%=      5-min Rain = 0
KSB1 141928Z 06010KT 31/16 A3025 RMK A01 T03120159  RH  040%=      5-min Rain = 0
KSB1 141929Z 06011KT 31/16 A3025 RMK A01 T03130160  RH  040%=      5-min Rain = 0
KSB1 141930Z 05010KT 31/16 A3025 RMK A01 T03110160  RH  040%=      5-min Rain = 0
KSB1 141931Z 06010KT 31/16 A3025 RMK A01 T03090160  RH  041%=      5-min Rain = 0
KSB1 141932Z 07015KT 31/16 A3024 RMK A01 T03060160  RH  041%=      5-min Rain = 0
KSB1 141933Z 07015KT 31/16 A3024 RMK A01 T03060161  RH  041%=      5-min Rain = 0
KSB1 141934Z 06019KT 31/16 A3024 RMK A01 T03080160  RH  041%=      5-min Rain = 0
KSB1 141935Z 06016KT 31/16 A3024 RMK A01 T03080160  RH  041%=      5-min Rain = 0
KSB1 141936Z 05015KT 31/16 A3024 RMK A01 T03080160  RH  041%=      5-min Rain = 0
KSB1 141937Z 05014KT 31/16 A3024 RMK A01 T03070160  RH  041%=      5-min Rain = 0
KSB1 141938Z 05018KT 31/16 A3024 RMK A01 T03050160  RH  042%=      5-min Rain = 0
KSB1 141939Z 05015KT 30/16 A3024 RMK A01 T03040160  RH  042%=      5-min Rain = 0
KSB1 141940Z 05014KT 30/16 A3024 RMK A01 T03040161  RH  042%=      5-min Rain = 0
KSB1 141941Z 04010KT 31/16 A3024 RMK A01 T03060161  RH  042%=      5-min Rain = 0
KSB1 141942Z 05010KT 31/16 A3024 RMK A01 T03070162  RH  042%=      5-min Rain = 0
KSB1 141943Z 04011KT 31/16 A3024 RMK A01 T03060162  RH  042%=      5-min Rain = 0
KSB1 141944Z 04012KT 31/16 A3024 RMK A01 T03090160  RH  041%=      5-min Rain = 0
KSB1 141945Z 04011KT 31/16 A3024 RMK A01 T03090159  RH  041%=      5-min Rain = 0
KSB1 141946Z 05012KT 31/16 A3024 RMK A01 T03080160  RH  041%=      5-min Rain = 0
KSB1 141947Z 05012KT 31/16 A3024 RMK A01 T03080163  RH  042%=      5-min Rain = 0
KSB1 141948Z 05017G24KT 31/16 A3023 RMK A01 T03090162  RH  041%=      5-min Rain = 0
KSB1 141949Z 07013KT 31/16 A3024 RMK A01 T03090161  RH  041%=      5-min Rain = 0
KSB1 141950Z 05014KT 31/16 A3023 RMK A01 T03060161  RH  042%=      5-min Rain = 0
KSB1 141951Z 04016KT 31/16 A3023 RMK A01 T03050161  RH  042%=      5-min Rain = 0
KSB1 141952Z 04015KT 31/16 A3023 RMK A01 T03050161  RH  042%=      5-min Rain = 0
KSB1 141953Z 04015KT 31/16 A3023 RMK A01 T03050161  RH  042%=      5-min Rain = 0
KSB1 141954Z 04014KT 31/16 A3023 RMK A01 T03050161  RH  042%=      5-min Rain = 0
KSB1 141955Z 05016KT 31/16 A3023 RMK A01 T03090162  RH  041%=      5-min Rain = 0
KSB1 141956Z 07012KT 31/16 A3023 RMK A01 T03140158  RH  039%=      5-min Rain = 0
KSB1 141957Z 07013KT 32/16 A3023 RMK A01 T03160156  RH  038%=      5-min Rain = 0
KSB1 141958Z 08014KT 31/16 A3023 RMK A01 T03140156  RH  039%=      5-min Rain = 0
KSB1 141959Z 08014KT 31/15 A3023 RMK A01 T03130154  RH  038%=      5-min Rain = 0
KSB1 142000Z 08013KT 31/15 A3023 RMK A01 T03130154  RH  038%=      5-min Rain = 0
KSB1 142001Z 09012KT 31/15 A3023 RMK A01 T03120154  RH  038%=      5-min Rain = 0
KSB1 142002Z 06009KT 31/15 A3023 RMK A01 T03110154  RH  039%=      5-min Rain = 0
KSB1 142003Z 07011G19KT 31/16 A3023 RMK A01 T03140155  RH  038%=      5-min Rain = 0
KSB1 142004Z 07017KT 32/16 A3023 RMK A01 T03180157  RH  038%=      5-min Rain = 0
KSB1 142005Z 08018KT 32/16 A3023 RMK A01 T03220159  RH  037%=      5-min Rain = 0
KSB1 142006Z 07018KT 32/16 A3023 RMK A01 T03210157  RH  037%=      5-min Rain = 0
KSB1 142007Z 07015KT 32/16 A3023 RMK A01 T03210157  RH  037%=      5-min Rain = 0
KSB1 142008Z 07012KT 32/16 A3023 RMK A01 T03220155  RH  037%=      5-min Rain = 0
KSB1 142009Z 07009KT 32/16 A3023 RMK A01 T03200155  RH  037%=      5-min Rain = 0
KSB1 142010Z 08009G14KT 32/16 A3022 RMK A01 T03200156  RH  037%=      5-min Rain = 0
KSB1 142011Z 07011KT 32/16 A3022 RMK A01 T03180156  RH  038%=      5-min Rain = 0
KSB1 142012Z 07009KT 32/16 A3022 RMK A01 T03160156  RH  038%=      5-min Rain = 0
KSB1 142013Z 06014KT 32/16 A3022 RMK A01 T03150156  RH  038%=      5-min Rain = 0
KSB1 142014Z 06017KT 32/16 A3022 RMK A01 T03180156  RH  038%=      5-min Rain = 0
KSB1 142015Z 06014KT 32/16 A3022 RMK A01 T03210156  RH  037%=      5-min Rain = 0
KSB1 142016Z 06015KT 32/16 A3022 RMK A01 T03200156  RH  037%=      5-min Rain = 0
KSB1 142017Z 05015KT 32/16 A3022 RMK A01 T03230155  RH  036%=      5-min Rain = 0
KSB1 142018Z 05012G17KT 32/15 A3022 RMK A01 T03240153  RH  036%=      5-min Rain = 0
KSB1 142019Z 05009KT 32/15 A3022 RMK A01 T03230154  RH  036%=      5-min Rain = 0
KSB1 142020Z 07009KT 32/15 A3022 RMK A01 T03230153  RH  036%=      5-min Rain = 0
KSB1 142021Z 08010KT 32/15 A3022 RMK A01 T03220154  RH  036%=      5-min Rain = 0
KSB1 142022Z 08008KT 32/15 A3022 RMK A01 T03240153  RH  036%=      5-min Rain = 0
KSB1 142023Z 08008KT 32/15 A3022 RMK A01 T03230154  RH  036%=      5-min Rain = 0
KSB1 142024Z 07012KT 32/16 A3022 RMK A01 T03220155  RH  036%=      5-min Rain = 0
KSB1 142025Z 07009KT 32/15 A3022 RMK A01 T03220153  RH  036%=      5-min Rain = 0
KSB1 142026Z 07012KT 32/16 A3022 RMK A01 T03200155  RH  037%=      5-min Rain = 0
KSB1 142027Z 08011KT 32/16 A3021 RMK A01 T03180157  RH  038%=      5-min Rain = 0
KSB1 142028Z 07014KT 32/16 A3021 RMK A01 T03180157  RH  038%=      5-min Rain = 0
KSB1 142029Z 08013KT 32/16 A3021 RMK A01 T03190157  RH  038%=      5-min Rain = 0
KSB1 142030Z 08012KT 32/16 A3021 RMK A01 T03190158  RH  038%=      5-min Rain = 0
KSB1 142031Z 09010KT 32/16 A3021 RMK A01 T03160156  RH  038%=      5-min Rain = 0
KSB1 142032Z 07012G17KT 32/16 A3021 RMK A01 T03160156  RH  038%=      5-min Rain = 0
KSB1 142033Z 07014KT 32/16 A3021 RMK A01 T03190157  RH  038%=      5-min Rain = 0
KSB1 142034Z 06010KT 32/16 A3021 RMK A01 T03170156  RH  038%=      5-min Rain = 0
KSB1 142035Z 08008KT 32/15 A3021 RMK A01 T03150154  RH  038%=      5-min Rain = 0
KSB1 142036Z 09006KT 31/16 A3021 RMK A01 T03140155  RH  038%=      5-min Rain = 0
KSB1 142037Z 09010KT 32/16 A3021 RMK A01 T03180158  RH  038%=      5-min Rain = 0
KSB1 142038Z 09007KT 32/16 A3021 RMK A01 T03200157  RH  037%=      5-min Rain = 0
KSB1 142039Z 11010G15KT 32/16 A3021 RMK A01 T03220155  RH  037%=      5-min Rain = 0
KSB1 142040Z 10015KT 32/15 A3021 RMK A01 T03240153  RH  036%=      5-min Rain = 0
KSB1 142041Z 10014KT 32/15 A3021 RMK A01 T03220153  RH  036%=      5-min Rain = 0
KSB1 142042Z 09014KT 32/15 A3021 RMK A01 T03210153  RH  036%=      5-min Rain = 0
KSB1 142043Z 10010KT 32/15 A3021 RMK A01 T03190153  RH  037%=      5-min Rain = 0
KSB1 142044Z 08008KT 32/15 A3021 RMK A01 T03190153  RH  037%=      5-min Rain = 0
KSB1 142045Z 07009KT 32/16 A302 RMK A01 T03210155  RH  037%=      5-min Rain = 0
KSB1 142046Z 07009KT 32/16 A302 RMK A01 T03210156  RH  037%=      5-min Rain = 0
KSB1 142047Z 07009KT 32/16 A302 RMK A01 T03230155  RH  036%=      5-min Rain = 0
KSB1 142048Z 09010KT 33/16 A302 RMK A01 T03250156  RH  036%=      5-min Rain = 0
KSB1 142049Z 09014G19KT 33/15 A302 RMK A01 T03250154  RH  036%=      5-min Rain = 0
KSB1 142050Z 08016KT 33/15 A302 RMK A01 T03260152  RH  035%=      5-min Rain = 0
KSB1 142051Z 09016KT 33/15 A302 RMK A01 T03250151  RH  035%=      5-min Rain = 0
KSB1 142052Z 08013KT 32/15 A302 RMK A01 T03230152  RH  036%=      5-min Rain = 0
KSB1 142053Z 06012KT 32/15 A302 RMK A01 T03200151  RH  036%=      5-min Rain = 0
KSB1 142054Z 07012KT 32/15 A302 RMK A01 T03200150  RH  036%=      5-min Rain = 0
KSB1 142055Z 08011KT 32/15 A302 RMK A01 T03240149  RH  035%=      5-min Rain = 0
KSB1 142056Z 07011KT 32/15 A302 RMK A01 T03240148  RH  035%=      5-min Rain = 0
KSB1 142057Z 08013KT 33/15 A302 RMK A01 T03260147  RH  034%=      5-min Rain = 0
KSB1 142058Z 08011KT 33/15 A302 RMK A01 T03270147  RH  034%=      5-min Rain = 0
KSB1 142059Z 10008KT 33/15 A302 RMK A01 T03270146  RH  033%=      5-min Rain = 0
KSB1 142100Z 09009KT 33/15 A3019 RMK A01 T03250148  RH  034%=      5-min Rain = 0
KSB1 142101Z 10011KT 33/15 A3019 RMK A01 T03250150  RH  035%=      5-min Rain = 0
KSB1 142102Z 10008KT 33/15 A3019 RMK A01 T03280151  RH  034%=      5-min Rain = 0
KSB1 142103Z 09010KT 33/15 A3019 RMK A01 T03280151  RH  035%=      5-min Rain = 0
KSB1 142104Z 09012KT 33/15 A3019 RMK A01 T03320154  RH  034%=      5-min Rain = 0
KSB1 142105Z 09012KT 33/15 A3019 RMK A01 T03310153  RH  034%=      5-min Rain = 0
KSB1 142106Z 10009KT 33/15 A3019 RMK A01 T03250152  RH  035%=      5-min Rain = 0
KSB1 142107Z 11009KT 33/15 A3019 RMK A01 T03250153  RH  036%=      5-min Rain = 0
KSB1 142108Z 09009KT 33/15 A3019 RMK A01 T03250153  RH  036%=      5-min Rain = 0
KSB1 142109Z 09010KT 33/15 A3019 RMK A01 T03260153  RH  035%=      5-min Rain = 0
KSB1 142110Z 07013KT 33/15 A3019 RMK A01 T03270151  RH  035%=      5-min Rain = 0
KSB1 142111Z 06011KT 33/15 A3019 RMK A01 T03290149  RH  034%=      5-min Rain = 0
KSB1 142112Z 06012KT 33/15 A3019 RMK A01 T03340148  RH  033%=      5-min Rain = 0
KSB1 142113Z 07012KT 33/15 A3019 RMK A01 T03330148  RH  033%=      5-min Rain = 0
KSB1 142114Z 06011KT 33/15 A3019 RMK A01 T03300150  RH  034%=      5-min Rain = 0
KSB1 142115Z 04010KT 33/15 A3019 RMK A01 T03300150  RH  034%=      5-min Rain = 0
KSB1 142116Z 07009KT 33/15 A3019 RMK A01 T03280150  RH  034%=      5-min Rain = 0
KSB1 142117Z 07012G18KT 33/15 A3018 RMK A01 T03290151  RH  034%=      5-min Rain = 0
KSB1 142118Z 09014KT 33/15 A3019 RMK A01 T03330151  RH  033%=      5-min Rain = 0
KSB1 142119Z 09014KT 33/15 A3019 RMK A01 T03290149  RH  034%=      5-min Rain = 0
KSB1 142120Z 09012KT 33/15 A3019 RMK A01 T03250148  RH  035%=      5-min Rain = 0
KSB1 142121Z 09011KT 32/15 A3019 RMK A01 T03240148  RH  035%=      5-min Rain = 0
KSB1 142122Z 09011KT 33/15 A3018 RMK A01 T03260149  RH  034%=      5-min Rain = 0
KSB1 142123Z 08008KT 33/15 A3018 RMK A01 T03270149  RH  034%=      5-min Rain = 0
KSB1 142124Z 08012KT 33/15 A3018 RMK A01 T03310151  RH  034%=      5-min Rain = 0
KSB1 142125Z 07012KT 33/15 A3018 RMK A01 T03340152  RH  034%=      5-min Rain = 0
KSB1 142126Z 08015G23KT 33/15 A3018 RMK A01 T03330151  RH  034%=      5-min Rain = 0
KSB1 142127Z 09016KT 33/15 A3018 RMK A01 T03340151  RH  033%=      5-min Rain = 0
KSB1 142128Z 08016KT 34/15 A3018 RMK A01 T03350150  RH  033%=      5-min Rain = 0
KSB1 142129Z 08017KT 33/15 A3018 RMK A01 T03340150  RH  033%=      5-min Rain = 0
KSB1 142130Z 08013KT 33/15 A3018 RMK A01 T03300149  RH  034%=      5-min Rain = 0
KSB1 142131Z 07010G17KT 33/15 A3018 RMK A01 T03280147  RH  034%=      5-min Rain = 0
KSB1 142132Z 07016KT 33/15 A3018 RMK A01 T03270146  RH  034%=      5-min Rain = 0
KSB1 142133Z 09012KT 33/15 A3018 RMK A01 T03280146  RH  033%=      5-min Rain = 0
KSB1 142134Z 10016KT 33/15 A3018 RMK A01 T03330147  RH  033%=      5-min Rain = 0
KSB1 142135Z 11012KT 34/15 A3018 RMK A01 T03350145  RH  032%=      5-min Rain = 0
KSB1 142136Z 10010G16KT 34/14 A3018 RMK A01 T03350143  RH  031%=      5-min Rain = 0
KSB1 142137Z 12015KT 33/15 A3018 RMK A01 T03340145  RH  032%=      5-min Rain = 0
KSB1 142138Z 10014KT 33/15 A3018 RMK A01 T03330146  RH  032%=      5-min Rain = 0
KSB1 142139Z 11013KT 33/15 A3018 RMK A01 T03330146  RH  032%=      5-min Rain = 0
KSB1 142140Z 11010KT 33/15 A3018 RMK A01 T03310146  RH  033%=      5-min Rain = 0
KSB1 142141Z 11008KT 33/15 A3018 RMK A01 T03300148  RH  033%=      5-min Rain = 0
KSB1 142142Z 08010G16KT 33/15 A3018 RMK A01 T03290148  RH  033%=      5-min Rain = 0
KSB1 142143Z 09018KT 33/15 A3018 RMK A01 T03340148  RH  033%=      5-min Rain = 0
KSB1 142144Z 10014KT 34/15 A3018 RMK A01 T03360151  RH  033%=      5-min Rain = 0
KSB1 142145Z 10013KT 33/15 A3018 RMK A01 T03340151  RH  033%=      5-min Rain = 0
KSB1 142146Z 07015KT 33/14 A3018 RMK A01 T03340143  RH  032%=      5-min Rain = 0
KSB1 142147Z 07015KT 33/14 A3018 RMK A01 T03330140  RH  031%=      5-min Rain = 0
KSB1 142148Z 07014KT 33/14 A3018 RMK A01 T03290139  RH  032%=      5-min Rain = 0
KSB1 142149Z 07014KT 33/14 A3018 RMK A01 T03260138  RH  032%=      5-min Rain = 0
KSB1 142150Z 08012KT 32/14 A3018 RMK A01 T03240137  RH  032%=      5-min Rain = 0
KSB1 142151Z 09014KT 33/14 A3018 RMK A01 T03250137  RH  032%=      5-min Rain = 0
KSB1 142152Z 09013KT 33/14 A3018 RMK A01 T03250136  RH  032%=      5-min Rain = 0
KSB1 142153Z 08009KT 32/14 A3018 RMK A01 T03230136  RH  032%=      5-min Rain = 0
KSB1 142154Z 08013KT 32/14 A3018 RMK A01 T03210138  RH  033%=      5-min Rain = 0
KSB1 142155Z 06008KT 32/14 A3018 RMK A01 T03210138  RH  033%=      5-min Rain = 0
KSB1 142156Z 07008KT 32/14 A3018 RMK A01 T03210137  RH  033%=      5-min Rain = 0
KSB1 142157Z 10010KT 32/14 A3018 RMK A01 T03230138  RH  033%=      5-min Rain = 0
KSB1 142158Z 10011KT 33/14 A3018 RMK A01 T03260139  RH  032%=      5-min Rain = 0
KSB1 142159Z 11012KT 33/14 A3017 RMK A01 T03290142  RH  032%=      5-min Rain = 0
KSB1 142200Z 11015KT 33/14 A3017 RMK A01 T03310143  RH  032%=      5-min Rain = 0
KSB1 142201Z 10013KT 33/14 A3017 RMK A01 T03300141  RH  032%=      5-min Rain = 0
KSB1 142202Z 09016KT 33/14 A3017 RMK A01 T03310142  RH  032%=      5-min Rain = 0
KSB1 142203Z 09013G19KT 33/14 A3017 RMK A01 T03320138  RH  031%=      5-min Rain = 0
KSB1 142204Z 09016KT 33/14 A3017 RMK A01 T03300138  RH  031%=      5-min Rain = 0
KSB1 142205Z 08017KT 33/14 A3017 RMK A01 T03290136  RH  031%=      5-min Rain = 0
KSB1 142206Z 07016KT 33/14 A3017 RMK A01 T03300135  RH  031%=      5-min Rain = 0
KSB1 142207Z 07012G18KT 33/14 A3017 RMK A01 T03320135  RH  030%=      5-min Rain = 0
KSB1 142208Z 07009KT 33/14 A3017 RMK A01 T03290136  RH  031%=      5-min Rain = 0
KSB1 142209Z 10013KT 33/14 A3017 RMK A01 T03290137  RH  031%=      5-min Rain = 0
KSB1 142210Z 10010KT 33/14 A3017 RMK A01 T03290139  RH  032%=      5-min Rain = 0
KSB1 142211Z 10006KT 33/14 A3017 RMK A01 T03270139  RH  032%=      5-min Rain = 0
KSB1 142212Z 08004KT 33/14 A3017 RMK A01 T03250139  RH  032%=      5-min Rain = 0
KSB1 142213Z 08007KT 33/14 A3017 RMK A01 T03280141  RH  032%=      5-min Rain = 0
KSB1 142214Z 10012KT 33/14 A3017 RMK A01 T03320143  RH  032%=      5-min Rain = 0
KSB1 142215Z 12010KT 33/14 A3017 RMK A01 T03300140  RH  032%=      5-min Rain = 0
KSB1 142216Z 12011KT 33/14 A3017 RMK A01 T03300138  RH  032%=      5-min Rain = 0
KSB1 142217Z 12010KT 33/14 A3017 RMK A01 T03290138  RH  032%=      5-min Rain = 0
KSB1 142218Z 11011KT 33/14 A3017 RMK A01 T03280137  RH  031%=      5-min Rain = 0
KSB1 142219Z 09012KT 33/14 A3017 RMK A01 T03300139  RH  032%=      5-min Rain = 0
KSB1 142220Z 11010KT 33/14 A3017 RMK A01 T03340141  RH  031%=      5-min Rain = 0
KSB1 142221Z 11010KT 34/14 A3017 RMK A01 T03350140  RH  031%=      5-min Rain = 0
KSB1 142222Z 11014KT 33/14 A3017 RMK A01 T03340139  RH  031%=      5-min Rain = 0
KSB1 142223Z 10015KT 34/14 A3017 RMK A01 T03350139  RH  031%=      5-min Rain = 0
KSB1 142224Z 11016KT 33/14 A3017 RMK A01 T03330140  RH  031%=      5-min Rain = 0
KSB1 142225Z 11014KT 33/14 A3017 RMK A01 T03290142  RH  032%=      5-min Rain = 0
KSB1 142226Z 13012KT 33/14 A3017 RMK A01 T03270143  RH  033%=      5-min Rain = 0
KSB1 142227Z 14009KT 33/14 A3017 RMK A01 T03280144  RH  033%=      5-min Rain = 0
KSB1 142228Z 11010KT 33/14 A3017 RMK A01 T03270142  RH  033%=      5-min Rain = 0
KSB1 142229Z 12009KT 33/14 A3017 RMK A01 T03290139  RH  032%=      5-min Rain = 0
KSB1 142230Z 12008KT 33/14 A3017 RMK A01 T03330141  RH  031%=      5-min Rain = 0
KSB1 142231Z 10009KT 34/14 A3017 RMK A01 T03370142  RH  031%=      5-min Rain = 0
KSB1 142232Z 09008KT 34/14 A3017 RMK A01 T03350141  RH  031%=      5-min Rain = 0
KSB1 142233Z 09011KT 33/14 A3017 RMK A01 T03300141  RH  032%=      5-min Rain = 0
KSB1 142234Z 09011KT 33/14 A3017 RMK A01 T03320143  RH  032%=      5-min Rain = 0
KSB1 142235Z 11013KT 34/14 A3017 RMK A01 T03370144  RH  031%=      5-min Rain = 0
KSB1 142236Z 11014KT 34/14 A3017 RMK A01 T03380141  RH  031%=      5-min Rain = 0
KSB1 142237Z 09012KT 33/14 A3017 RMK A01 T03330140  RH  031%=      5-min Rain = 0
KSB1 142238Z 09013KT 33/14 A3017 RMK A01 T03310139  RH  031%=      5-min Rain = 0
KSB1 142239Z 09012KT 33/14 A3017 RMK A01 T03270138  RH  032%=      5-min Rain = 0
KSB1 142240Z 10013KT 33/14 A3017 RMK A01 T03250138  RH  032%=      5-min Rain = 0
KSB1 142241Z 09010KT 32/14 A3017 RMK A01 T03240137  RH  032%=      5-min Rain = 0
KSB1 142242Z 08010KT 33/14 A3017 RMK A01 T03260135  RH  032%=      5-min Rain = 0
KSB1 142243Z 08012KT 33/14 A3017 RMK A01 T03270136  RH  032%=      5-min Rain = 0
KSB1 142244Z 07010KT 33/14 A3017 RMK A01 T03280136  RH  031%=      5-min Rain = 0
KSB1 142245Z 07010KT 33/14 A3017 RMK A01 T03290137  RH  031%=      5-min Rain = 0
KSB1 142246Z 06011KT 33/14 A3016 RMK A01 T03290137  RH  031%=      5-min Rain = 0
KSB1 142247Z 07011KT 33/14 A3016 RMK A01 T03290136  RH  031%=      5-min Rain = 0
KSB1 142248Z 07012KT 33/14 A3016 RMK A01 T03290136  RH  031%=      5-min Rain = 0
KSB1 142249Z 08014KT 33/14 A3016 RMK A01 T03290136  RH  031%=      5-min Rain = 0
KSB1 142250Z 09014KT 33/14 A3016 RMK A01 T03330136  RH  030%=      5-min Rain = 0
KSB1 142251Z 10015KT 34/14 A3016 RMK A01 T03350137  RH  030%=      5-min Rain = 0
KSB1 142252Z 10011KT 34/14 A3017 RMK A01 T03350135  RH  030%=      5-min Rain = 0
KSB1 142253Z 09010KT 33/13 A3017 RMK A01 T03340134  RH  030%=      5-min Rain = 0
KSB1 142254Z 08010KT 33/13 A3017 RMK A01 T03310134  RH  030%=      5-min Rain = 0
KSB1 142255Z 08009KT 33/14 A3016 RMK A01 T03290135  RH  031%=      5-min Rain = 0
KSB1 142256Z 08010KT 33/14 A3016 RMK A01 T03270137  RH  032%=      5-min Rain = 0
KSB1 142257Z 08007KT 33/14 A3016 RMK A01 T03250137  RH  032%=      5-min Rain = 0
KSB1 142258Z 10008G15KT 33/14 A3016 RMK A01 T03250137  RH  032%=      5-min Rain = 0
KSB1 142259Z 10012KT 33/14 A3016 RMK A01 T03270139  RH  032%=      5-min Rain = 0
KSB1 142300Z 11011KT 33/14 A3016 RMK A01 T03310138  RH  031%=      5-min Rain = 0
KSB1 142301Z 09011G16KT 33/14 A3016 RMK A01 T03300136  RH  031%=      5-min Rain = 0
KSB1 142302Z 08014KT 33/14 A3016 RMK A01 T03290137  RH  031%=      5-min Rain = 0
KSB1 142303Z 10014KT 33/14 A3016 RMK A01 T03290137  RH  031%=      5-min Rain = 0
KSB1 142304Z 10012KT 33/14 A3016 RMK A01 T03300137  RH  031%=      5-min Rain = 0
KSB1 142305Z 10008KT 33/14 A3016 RMK A01 T03300136  RH  031%=      5-min Rain = 0
KSB1 142306Z 11010KT 33/14 A3016 RMK A01 T03280135  RH  031%=      5-min Rain = 0
KSB1 142307Z 12010KT 33/14 A3016 RMK A01 T03290135  RH  031%=      5-min Rain = 0
KSB1 142308Z 11010G15KT 33/14 A3016 RMK A01 T03300135  RH  031%=      5-min Rain = 0
KSB1 142309Z 11014KT 33/13 A3016 RMK A01 T03310133  RH  030%=      5-min Rain = 0
KSB1 142310Z 12010KT 33/14 A3016 RMK A01 T03300135  RH  031%=      5-min Rain = 0
KSB1 142311Z 11011KT 33/14 A3016 RMK A01 T03310137  RH  031%=      5-min Rain = 0
KSB1 142312Z 11008KT 33/14 A3016 RMK A01 T03290136  RH  031%=      5-min Rain = 0
KSB1 142313Z 11007KT 33/14 A3016 RMK A01 T03280137  RH  031%=      5-min Rain = 0
KSB1 142314Z 16008KT 33/14 A3016 RMK A01 T03300139  RH  031%=      5-min Rain = 0
KSB1 142315Z 13008KT 33/13 A3016 RMK A01 T03310132  RH  030%=      5-min Rain = 0
KSB1 142316Z 10011KT 33/14 A3016 RMK A01 T03310138  RH  031%=      5-min Rain = 0
KSB1 142317Z 09011KT 33/14 A3016 RMK A01 T03310138  RH  031%=      5-min Rain = 0
KSB1 142318Z 11008KT 33/14 A3016 RMK A01 T03310138  RH  031%=      5-min Rain = 0
KSB1 142319Z 12008KT 33/14 A3016 RMK A01 T03310136  RH  031%=      5-min Rain = 0
KSB1 142320Z 12006KT 33/14 A3016 RMK A01 T03300135  RH  031%=      5-min Rain = 0
KSB1 142321Z 10008KT 33/14 A3016 RMK A01 T03280135  RH  031%=      5-min Rain = 0
KSB1 142322Z 10011KT 33/14 A3016 RMK A01 T03300141  RH  032%=      5-min Rain = 0
KSB1 142323Z 10013KT 33/15 A3016 RMK A01 T03300147  RH  033%=      5-min Rain = 0
KSB1 142324Z 10014KT 33/15 A3016 RMK A01 T03280149  RH  034%=      5-min Rain = 0
KSB1 142325Z 10012KT 33/15 A3016 RMK A01 T03320148  RH  033%=      5-min Rain = 0
KSB1 142326Z 11013KT 33/15 A3016 RMK A01 T03320147  RH  033%=      5-min Rain = 0
KSB1 142327Z 13014KT 33/15 A3016 RMK A01 T03320146  RH  033%=      5-min Rain = 0
KSB1 142328Z 11011KT 33/15 A3016 RMK A01 T03290146  RH  033%=      5-min Rain = 0
KSB1 142329Z 12013KT 33/15 A3016 RMK A01 T03290147  RH  033%=      5-min Rain = 0
KSB1 142330Z 12014KT 33/15 A3016 RMK A01 T03280147  RH  034%=      5-min Rain = 0
KSB1 142331Z 12012KT 33/15 A3016 RMK A01 T03260147  RH  034%=      5-min Rain = 0
KSB1 142332Z 13013KT 33/15 A3016 RMK A01 T03250147  RH  034%=      5-min Rain = 0
KSB1 142333Z 13012KT 33/15 A3016 RMK A01 T03250147  RH  034%=      5-min Rain = 0
KSB1 142334Z 12015KT 33/15 A3016 RMK A01 T03260147  RH  034%=      5-min Rain = 0
KSB1 142335Z 12015KT 33/15 A3016 RMK A01 T03260147  RH  034%=      5-min Rain = 0
KSB1 142336Z 11014KT 33/15 A3016 RMK A01 T03250148  RH  034%=      5-min Rain = 0
KSB1 142337Z 12014KT 33/15 A3016 RMK A01 T03250147  RH  034%=      5-min Rain = 0
KSB1 142338Z 11014KT 32/15 A3016 RMK A01 T03240146  RH  034%=      5-min Rain = 0
KSB1 142339Z 09010KT 32/15 A3016 RMK A01 T03230146  RH  034%=      5-min Rain = 0
KSB1 142340Z 11012KT 32/15 A3016 RMK A01 T03230148  RH  035%=      5-min Rain = 0
KSB1 142341Z 10012KT 33/15 A3016 RMK A01 T03250149  RH  035%=      5-min Rain = 0
KSB1 142342Z 11014KT 33/15 A3016 RMK A01 T03270149  RH  034%=      5-min Rain = 0
KSB1 142343Z 11015KT 33/15 A3016 RMK A01 T03270148  RH  034%=      5-min Rain = 0
KSB1 142344Z 11016KT 33/15 A3016 RMK A01 T03260148  RH  034%=      5-min Rain = 0
KSB1 142345Z 11014KT 33/15 A3016 RMK A01 T03270150  RH  035%=      5-min Rain = 0
KSB1 142346Z 10012KT 33/15 A3016 RMK A01 T03270151  RH  035%=      5-min Rain = 0
KSB1 142347Z 11010KT 33/15 A3016 RMK A01 T03270150  RH  034%=      5-min Rain = 0
KSB1 142348Z 13006KT 33/15 A3016 RMK A01 T03260149  RH  034%=      5-min Rain = 0
KSB1 142349Z 14007KT 33/15 A3016 RMK A01 T03250148  RH  035%=      5-min Rain = 0
KSB1 142350Z 15009KT 33/15 A3016 RMK A01 T03250148  RH  034%=      5-min Rain = 0
KSB1 142351Z 13006KT 33/15 A3016 RMK A01 T03260148  RH  034%=      5-min Rain = 0
KSB1 142352Z 13009KT 33/15 A3016 RMK A01 T03280148  RH  034%=      5-min Rain = 0
KSB1 142353Z 13010KT 33/15 A3016 RMK A01 T03290146  RH  033%=      5-min Rain = 0
KSB1 142354Z 12012KT 33/15 A3016 RMK A01 T03290146  RH  033%=      5-min Rain = 0
KSB1 142355Z 11013KT 33/15 A3016 RMK A01 T03270146  RH  033%=      5-min Rain = 0
KSB1 142356Z 11015KT 33/15 A3016 RMK A01 T03250146  RH  034%=      5-min Rain = 0
KSB1 142357Z 12013KT 33/15 A3016 RMK A01 T03250146  RH  034%=      5-min Rain = 0
KSB1 142358Z 12014KT 33/15 A3016 RMK A01 T03250145  RH  034%=      5-min Rain = 0
KSB1 142359Z 11012KT 32/15 A3016 RMK A01 T03240145  RH  034%=      5-min Rain = 0
KSB1 150000Z 12013KT 32/15 A3016 RMK A01 T03230145  RH  034%=      5-min Rain = 0
KSB1 150001Z 13010KT 32/15 A3016 RMK A01 T03220145  RH  034%=      5-min Rain = 0
KSB1 150002Z 12010KT 32/15 A3016 RMK A01 T03220146  RH  035%=      5-min Rain = 0
KSB1 150003Z 10011KT 32/15 A3016 RMK A01 T03230147  RH  034%=      5-min Rain = 0
KSB1 150004Z 11014KT 32/15 A3016 RMK A01 T03240147  RH  034%=      5-min Rain = 0
KSB1 150005Z 11012KT 32/15 A3016 RMK A01 T03210146  RH  035%=      5-min Rain = 0
KSB1 150006Z 12013KT 32/15 A3016 RMK A01 T03210146  RH  035%=      5-min Rain = 0
KSB1 150007Z 13010KT 32/15 A3016 RMK A01 T03210145  RH  035%=      5-min Rain = 0
KSB1 150008Z 12007KT 32/14 A3016 RMK A01 T03190144  RH  035%=      5-min Rain = 0
KSB1 150009Z 12008KT 32/15 A3015 RMK A01 T03200145  RH  035%=      5-min Rain = 0
KSB1 150010Z 14011KT 32/15 A3016 RMK A01 T03220146  RH  034%=      5-min Rain = 0
KSB1 150011Z 14012KT 32/15 A3015 RMK A01 T03230146  RH  034%=      5-min Rain = 0
KSB1 150012Z 14015KT 32/15 A3015 RMK A01 T03230146  RH  034%=      5-min Rain = 0
KSB1 150013Z 12014KT 32/15 A3016 RMK A01 T03230145  RH  034%=      5-min Rain = 0
KSB1 150014Z 12012KT 32/15 A3016 RMK A01 T03220145  RH  034%=      5-min Rain = 0
KSB1 150015Z 11011G16KT 32/15 A3016 RMK A01 T03220145  RH  034%=      5-min Rain = 0
KSB1 150016Z 12012KT 32/14 A3016 RMK A01 T03230144  RH  034%=      5-min Rain = 0
KSB1 150017Z 12013KT 32/14 A3016 RMK A01 T03230144  RH  034%=      5-min Rain = 0
KSB1 150018Z 11013KT 32/14 A3016 RMK A01 T03230144  RH  034%=      5-min Rain = 0
KSB1 150019Z 10012KT 32/14 A3016 RMK A01 T03220144  RH  034%=      5-min Rain = 0
KSB1 150020Z 11011KT 32/14 A3016 RMK A01 T03210143  RH  034%=      5-min Rain = 0
KSB1 150021Z 11008KT 32/14 A3016 RMK A01 T03200143  RH  034%=      5-min Rain = 0
KSB1 150022Z 10009KT 32/14 A3016 RMK A01 T03210143  RH  034%=      5-min Rain = 0
KSB1 150023Z 10010KT 32/14 A3016 RMK A01 T03220143  RH  034%=      5-min Rain = 0
KSB1 150024Z 12011KT 32/14 A3016 RMK A01 T03220142  RH  033%=      5-min Rain = 0
KSB1 150025Z 11012KT 32/14 A3016 RMK A01 T03230142  RH  033%=      5-min Rain = 0
KSB1 150026Z 12012KT 32/14 A3016 RMK A01 T03240142  RH  033%=      5-min Rain = 0
KSB1 150027Z 12012KT 32/14 A3016 RMK A01 T03230141  RH  033%=      5-min Rain = 0
KSB1 150028Z 11011KT 32/14 A3016 RMK A01 T03200141  RH  034%=      5-min Rain = 0
KSB1 150029Z 12011KT 32/14 A3016 RMK A01 T03200141  RH  034%=      5-min Rain = 0
KSB1 150030Z 12010KT 32/14 A3016 RMK A01 T03200140  RH  034%=      5-min Rain = 0
KSB1 150031Z 13012KT 32/14 A3016 RMK A01 T03210139  RH  033%=      5-min Rain = 0
KSB1 150032Z 12011KT 32/14 A3016 RMK A01 T03220138  RH  033%=      5-min Rain = 0
KSB1 150033Z 12012KT 32/14 A3016 RMK A01 T03220138  RH  033%=      5-min Rain = 0
KSB1 150034Z 12013KT 32/14 A3016 RMK A01 T03210138  RH  033%=      5-min Rain = 0
KSB1 150035Z 11011KT 32/14 A3016 RMK A01 T03200138  RH  033%=      5-min Rain = 0
KSB1 150036Z 12012KT 32/14 A3016 RMK A01 T03200138  RH  033%=      5-min Rain = 0
KSB1 150037Z 13013KT 32/14 A3016 RMK A01 T03180136  RH  033%=      5-min Rain = 0
KSB1 150038Z 14012KT 32/14 A3016 RMK A01 T03180136  RH  033%=      5-min Rain = 0
KSB1 150039Z 13011KT 32/14 A3016 RMK A01 T03180137  RH  033%=      5-min Rain = 0
KSB1 150040Z 13011KT 32/14 A3016 RMK A01 T03180136  RH  033%=      5-min Rain = 0
KSB1 150041Z 13011KT 32/14 A3016 RMK A01 T03180136  RH  033%=      5-min Rain = 0
KSB1 150042Z 12013KT 32/14 A3016 RMK A01 T03180137  RH  033%=      5-min Rain = 0
KSB1 150043Z 12011KT 32/14 A3016 RMK A01 T03170138  RH  034%=      5-min Rain = 0
KSB1 150044Z 14011KT 32/14 A3016 RMK A01 T03160140  RH  034%=      5-min Rain = 0
KSB1 150045Z 13011KT 32/14 A3016 RMK A01 T03150140  RH  034%=      5-min Rain = 0
KSB1 150046Z 11011KT 32/14 A3016 RMK A01 T03150140  RH  035%=      5-min Rain = 0
KSB1 150047Z 12008KT 32/14 A3016 RMK A01 T03150140  RH  035%=      5-min Rain = 0
KSB1 150048Z 12010KT 32/14 A3017 RMK A01 T03150139  RH  034%=      5-min Rain = 0
KSB1 150049Z 11011KT 32/14 A3017 RMK A01 T03160140  RH  034%=      5-min Rain = 0
KSB1 150050Z 10012KT 32/14 A3017 RMK A01 T03160140  RH  034%=      5-min Rain = 0
KSB1 150051Z 09009KT 32/14 A3017 RMK A01 T03160141  RH  035%=      5-min Rain = 0
KSB1 150052Z 09011KT 32/14 A3017 RMK A01 T03160140  RH  034%=      5-min Rain = 0
KSB1 150053Z 10009KT 32/14 A3017 RMK A01 T03160140  RH  034%=      5-min Rain = 0
KSB1 150054Z 09009KT 32/14 A3017 RMK A01 T03150140  RH  035%=      5-min Rain = 0
KSB1 150055Z 09008KT 31/14 A3017 RMK A01 T03140140  RH  035%=      5-min Rain = 0
KSB1 150056Z 09009KT 31/14 A3017 RMK A01 T03130141  RH  035%=      5-min Rain = 0
KSB1 150057Z 09008KT 31/14 A3017 RMK A01 T03130141  RH  035%=      5-min Rain = 0
KSB1 150058Z 09009KT 31/14 A3017 RMK A01 T03130141  RH  035%=      5-min Rain = 0
KSB1 150059Z 10011KT 31/14 A3017 RMK A01 T03130140  RH  035%=      5-min Rain = 0
KSB1 150100Z 10013KT 31/14 A3017 RMK A01 T03120140  RH  035%=      5-min Rain = 0
KSB1 150101Z 10012KT 31/14 A3017 RMK A01 T03110141  RH  035%=      5-min Rain = 0
KSB1 150102Z 09013KT 31/14 A3017 RMK A01 T03110141  RH  036%=      5-min Rain = 0
KSB1 150103Z 09012KT 31/14 A3017 RMK A01 T03110141  RH  036%=      5-min Rain = 0
KSB1 150104Z 10011KT 31/14 A3017 RMK A01 T03110141  RH  036%=      5-min Rain = 0
KSB1 150105Z 11012KT 31/14 A3017 RMK A01 T03100140  RH  036%=      5-min Rain = 0
KSB1 150106Z 10010KT 31/14 A3017 RMK A01 T03110140  RH  036%=      5-min Rain = 0
KSB1 150107Z 11010KT 31/14 A3017 RMK A01 T03100140  RH  035%=      5-min Rain = 0
KSB1 150108Z 11008KT 31/14 A3017 RMK A01 T03100140  RH  036%=      5-min Rain = 0
KSB1 150109Z 12012KT 31/14 A3018 RMK A01 T03100140  RH  036%=      5-min Rain = 0
KSB1 150110Z 12011KT 31/14 A3018 RMK A01 T03100139  RH  035%=      5-min Rain = 0
KSB1 150111Z 12009KT 31/14 A3018 RMK A01 T03090139  RH  035%=      5-min Rain = 0
KSB1 150112Z 12008KT 31/14 A3018 RMK A01 T03090139  RH  036%=      5-min Rain = 0
KSB1 150113Z 12009KT 31/14 A3018 RMK A01 T03090139  RH  036%=      5-min Rain = 0
KSB1 150114Z 11012KT 31/14 A3017 RMK A01 T03090138  RH  035%=      5-min Rain = 0
KSB1 150115Z 11010KT 31/14 A3017 RMK A01 T03080137  RH  035%=      5-min Rain = 0
KSB1 150116Z 10010KT 31/14 A3018 RMK A01 T03080137  RH  035%=      5-min Rain = 0
KSB1 150117Z 11011KT 31/14 A3017 RMK A01 T03090137  RH  035%=      5-min Rain = 0
KSB1 150118Z 10009KT 31/14 A3017 RMK A01 T03080137  RH  035%=      5-min Rain = 0
KSB1 150119Z 10012KT 31/14 A3017 RMK A01 T03090137  RH  035%=      5-min Rain = 0
KSB1 150120Z 11011KT 31/14 A3017 RMK A01 T03080137  RH  035%=      5-min Rain = 0
KSB1 150121Z 11010KT 31/14 A3018 RMK A01 T03080137  RH  035%=      5-min Rain = 0
KSB1 150122Z 12011KT 31/14 A3018 RMK A01 T03070137  RH  035%=      5-min Rain = 0
KSB1 150123Z 13011KT 31/14 A3018 RMK A01 T03060137  RH  036%=      5-min Rain = 0
KSB1 150124Z 12010KT 31/14 A3018 RMK A01 T03070137  RH  036%=      5-min Rain = 0
KSB1 150125Z 11010KT 31/14 A3018 RMK A01 T03070137  RH  036%=      5-min Rain = 0
KSB1 150126Z 11010KT 31/14 A3018 RMK A01 T03060137  RH  036%=      5-min Rain = 0
KSB1 150127Z 11008KT 31/14 A3018 RMK A01 T03060137  RH  036%=      5-min Rain = 0
KSB1 150128Z 12009KT 31/14 A3018 RMK A01 T03060137  RH  036%=      5-min Rain = 0
KSB1 150129Z 11010KT 31/14 A3018 RMK A01 T03060138  RH  036%=      5-min Rain = 0
KSB1 150130Z 12010KT 31/14 A3018 RMK A01 T03060139  RH  036%=      5-min Rain = 0
KSB1 150131Z 12010KT 31/14 A3018 RMK A01 T03050139  RH  036%=      5-min Rain = 0
KSB1 150132Z 12010KT 31/14 A3018 RMK A01 T03050140  RH  037%=      5-min Rain = 0
KSB1 150133Z 11012KT 30/14 A3018 RMK A01 T03040141  RH  037%=      5-min Rain = 0
KSB1 150134Z 11011KT 30/14 A3018 RMK A01 T03040141  RH  037%=      5-min Rain = 0
KSB1 150135Z 11012KT 30/14 A3018 RMK A01 T03040141  RH  037%=      5-min Rain = 0
KSB1 150136Z 12009KT 30/14 A3018 RMK A01 T03030141  RH  037%=      5-min Rain = 0
KSB1 150137Z 12008KT 30/14 A3018 RMK A01 T03030141  RH  037%=      5-min Rain = 0
KSB1 150138Z 12010KT 30/14 A3018 RMK A01 T03030141  RH  037%=      5-min Rain = 0
KSB1 150139Z 12011KT 30/14 A3018 RMK A01 T03030142  RH  037%=      5-min Rain = 0
KSB1 150140Z 12009KT 30/14 A3018 RMK A01 T03020141  RH  037%=      5-min Rain = 0
KSB1 150141Z 12009KT 30/14 A3018 RMK A01 T03020141  RH  038%=      5-min Rain = 0
KSB1 150142Z 12009KT 30/14 A3018 RMK A01 T03010141  RH  038%=      5-min Rain = 0
KSB1 150143Z 12011KT 30/14 A3018 RMK A01 T03010141  RH  038%=      5-min Rain = 0
KSB1 150144Z 12012KT 30/14 A3018 RMK A01 T03000141  RH  038%=      5-min Rain = 0
KSB1 150145Z 12012KT 30/14 A3018 RMK A01 T03000141  RH  038%=      5-min Rain = 0
KSB1 150146Z 12011KT 30/14 A3018 RMK A01 T03000141  RH  038%=      5-min Rain = 0
KSB1 150147Z 12011KT 30/14 A3019 RMK A01 T03000142  RH  038%=      5-min Rain = 0
KSB1 150148Z 12012KT 30/14 A3019 RMK A01 T02990141  RH  038%=      5-min Rain = 0
KSB1 150149Z 12011KT 30/14 A3019 RMK A01 T02990141  RH  038%=      5-min Rain = 0
KSB1 150150Z 12009KT 30/14 A3019 RMK A01 T02990142  RH  038%=      5-min Rain = 0
KSB1 150151Z 12011KT 30/14 A3019 RMK A01 T02980141  RH  038%=      5-min Rain = 0
KSB1 150152Z 12010KT 30/14 A3019 RMK A01 T02980141  RH  038%=      5-min Rain = 0
KSB1 150153Z 12009KT 30/14 A3019 RMK A01 T02980141  RH  038%=      5-min Rain = 0
KSB1 150154Z 12010KT 30/14 A3019 RMK A01 T02970141  RH  038%=      5-min Rain = 0
KSB1 150155Z 12009KT 30/14 A3019 RMK A01 T02970141  RH  039%=      5-min Rain = 0
KSB1 150156Z 12011KT 30/14 A3019 RMK A01 T02970141  RH  039%=      5-min Rain = 0
KSB1 150157Z 12010KT 30/14 A3019 RMK A01 T02960141  RH  039%=      5-min Rain = 0
KSB1 150158Z 12010KT 30/14 A3019 RMK A01 T02960140  RH  039%=      5-min Rain = 0
KSB1 150159Z 11011KT 30/14 A3019 RMK A01 T02960140  RH  039%=      5-min Rain = 0
KSB1 150200Z 12010KT 30/14 A3019 RMK A01 T02950140  RH  039%=      5-min Rain = 0
KSB1 150201Z 12008KT 30/14 A302 RMK A01 T02960140  RH  039%=      5-min Rain = 0
KSB1 150202Z 12009KT 30/14 A302 RMK A01 T02950140  RH  039%=      5-min Rain = 0
KSB1 150203Z 11009KT 30/14 A302 RMK A01 T02950140  RH  039%=      5-min Rain = 0
KSB1 150204Z 12009KT 30/14 A302 RMK A01 T02950140  RH  039%=      5-min Rain = 0
KSB1 150205Z 12008KT 29/14 A302 RMK A01 T02940140  RH  039%=      5-min Rain = 0
KSB1 150206Z 12009KT 29/14 A302 RMK A01 T02940140  RH  039%=      5-min Rain = 0
KSB1 150207Z 12008KT 29/14 A302 RMK A01 T02940140  RH  039%=      5-min Rain = 0
KSB1 150208Z 12008KT 29/14 A302 RMK A01 T02940140  RH  039%=      5-min Rain = 0
KSB1 150209Z 12009KT 29/14 A302 RMK A01 T02930140  RH  039%=      5-min Rain = 0
KSB1 150210Z 11008KT 29/14 A302 RMK A01 T02930140  RH  039%=      5-min Rain = 0
KSB1 150211Z 12009KT 29/14 A302 RMK A01 T02930140  RH  039%=      5-min Rain = 0
KSB1 150212Z 12008KT 29/14 A302 RMK A01 T02920139  RH  039%=      5-min Rain = 0
KSB1 150213Z 12008KT 29/14 A302 RMK A01 T02920139  RH  039%=      5-min Rain = 0
KSB1 150214Z 11009KT 29/14 A302 RMK A01 T02920139  RH  039%=      5-min Rain = 0
KSB1 150215Z 12008KT 29/14 A3021 RMK A01 T02910138  RH  039%=      5-min Rain = 0
KSB1 150216Z 11009KT 29/14 A3021 RMK A01 T02910138  RH  039%=      5-min Rain = 0
KSB1 150217Z 11010KT 29/14 A3021 RMK A01 T02910138  RH  039%=      5-min Rain = 0
KSB1 150218Z 11008KT 29/14 A3021 RMK A01 T02910138  RH  039%=      5-min Rain = 0
KSB1 150219Z 11010KT 29/14 A3021 RMK A01 T02900137  RH  039%=      5-min Rain = 0
KSB1 150220Z 11010KT 29/14 A3021 RMK A01 T02900137  RH  039%=      5-min Rain = 0
KSB1 150221Z 11009KT 29/14 A3021 RMK A01 T02900136  RH  039%=      5-min Rain = 0
KSB1 150222Z 11008KT 29/14 A3021 RMK A01 T02900135  RH  039%=      5-min Rain = 0
KSB1 150223Z 11009KT 29/13 A3021 RMK A01 T02900134  RH  038%=      5-min Rain = 0
KSB1 150224Z 11010KT 29/13 A3021 RMK A01 T02890133  RH  038%=      5-min Rain = 0
KSB1 150225Z 11009KT 29/13 A3021 RMK A01 T02890132  RH  038%=      5-min Rain = 0
KSB1 150226Z 10008KT 29/13 A3022 RMK A01 T02890132  RH  038%=      5-min Rain = 0
KSB1 150227Z 10008KT 29/13 A3022 RMK A01 T02890132  RH  038%=      5-min Rain = 0
KSB1 150228Z 10007KT 29/13 A3022 RMK A01 T02890131  RH  038%=      5-min Rain = 0
KSB1 150229Z 10007KT 29/13 A3022 RMK A01 T02880131  RH  038%=      5-min Rain = 0
KSB1 150230Z 10008KT 29/13 A3022 RMK A01 T02880130  RH  038%=      5-min Rain = 0
KSB1 150231Z 10008KT 29/13 A3022 RMK A01 T02880130  RH  038%=      5-min Rain = 0
KSB1 150232Z 11008KT 29/13 A3022 RMK A01 T02880130  RH  038%=      5-min Rain = 0
KSB1 150233Z 10009KT 29/13 A3022 RMK A01 T02880130  RH  038%=      5-min Rain = 0
KSB1 150234Z 10009KT 29/13 A3022 RMK A01 T02870129  RH  038%=      5-min Rain = 0
KSB1 150235Z 10009KT 29/13 A3022 RMK A01 T02870129  RH  038%=      5-min Rain = 0
KSB1 150236Z 11010KT 29/13 A3022 RMK A01 T02870130  RH  038%=      5-min Rain = 0
KSB1 150237Z 10010KT 29/13 A3022 RMK A01 T02870130  RH  038%=      5-min Rain = 0
KSB1 150238Z 10010KT 29/13 A3022 RMK A01 T02870130  RH  038%=      5-min Rain = 0
KSB1 150239Z 11008KT 29/13 A3022 RMK A01 T02860130  RH  038%=      5-min Rain = 0
KSB1 150240Z 10009KT 29/13 A3022 RMK A01 T02860131  RH  038%=      5-min Rain = 0
KSB1 150241Z 11009KT 29/13 A3022 RMK A01 T02860133  RH  039%=      5-min Rain = 0
KSB1 150242Z 11009KT 29/13 A3022 RMK A01 T02850134  RH  039%=      5-min Rain = 0
KSB1 150243Z 10010KT 29/14 A3022 RMK A01 T02850135  RH  040%=      5-min Rain = 0
KSB1 150244Z 11010KT 29/14 A3022 RMK A01 T02850136  RH  040%=      5-min Rain = 0
KSB1 150245Z 11009KT 29/14 A3023 RMK A01 T02850136  RH  040%=      5-min Rain = 0
KSB1 150246Z 11010KT 29/14 A3022 RMK A01 T02850138  RH  040%=      5-min Rain = 0
KSB1 150247Z 11011KT 29/14 A3022 RMK A01 T02850140  RH  041%=      5-min Rain = 0
KSB1 150248Z 11011KT 29/14 A3023 RMK A01 T02850140  RH  041%=      5-min Rain = 0
KSB1 150249Z 11009KT 28/14 A3023 RMK A01 T02840141  RH  042%=      5-min Rain = 0
KSB1 150250Z 11010KT 28/14 A3023 RMK A01 T02840142  RH  042%=      5-min Rain = 0
KSB1 150251Z 10011KT 28/14 A3023 RMK A01 T02840142  RH  042%=      5-min Rain = 0
KSB1 150252Z 10011KT 28/14 A3023 RMK A01 T02840143  RH  042%=      5-min Rain = 0
KSB1 150253Z 10011KT 28/14 A3023 RMK A01 T02830143  RH  042%=      5-min Rain = 0
KSB1 150254Z 10012KT 28/14 A3023 RMK A01 T02840143  RH  042%=      5-min Rain = 0
KSB1 150255Z 10011KT 28/14 A3023 RMK A01 T02840142  RH  042%=      5-min Rain = 0
KSB1 150256Z 10011KT 28/14 A3023 RMK A01 T02840142  RH  042%=      5-min Rain = 0
KSB1 150257Z 10012KT 28/14 A3023 RMK A01 T02830141  RH  042%=      5-min Rain = 0
KSB1 150258Z 10011KT 28/14 A3023 RMK A01 T02840141  RH  042%=      5-min Rain = 0
KSB1 150259Z 10011KT 28/14 A3023 RMK A01 T02830141  RH  042%=      5-min Rain = 0
KSB1 150300Z 10011KT 28/14 A3023 RMK A01 T02840141  RH  041%=      5-min Rain = 0
KSB1 150301Z 10011KT 28/14 A3023 RMK A01 T02840140  RH  041%=      5-min Rain = 0
KSB1 150302Z 10010KT 28/14 A3023 RMK A01 T02840140  RH  041%=      5-min Rain = 0
KSB1 150303Z 10011KT 28/14 A3023 RMK A01 T02840141  RH  041%=      5-min Rain = 0
KSB1 150304Z 09011KT 28/14 A3023 RMK A01 T02840141  RH  042%=      5-min Rain = 0
KSB1 150305Z 09013KT 28/14 A3023 RMK A01 T02830141  RH  042%=      5-min Rain = 0
KSB1 150306Z 10011KT 28/14 A3023 RMK A01 T02830141  RH  042%=      5-min Rain = 0
KSB1 150307Z 09011KT 28/14 A3023 RMK A01 T02830141  RH  042%=      5-min Rain = 0
KSB1 150308Z 09012KT 28/14 A3023 RMK A01 T02830142  RH  042%=      5-min Rain = 0
KSB1 150309Z 09012KT 28/14 A3023 RMK A01 T02820142  RH  042%=      5-min Rain = 0
KSB1 150310Z 09011KT 28/14 A3023 RMK A01 T02820143  RH  042%=      5-min Rain = 0
KSB1 150311Z 09013KT 28/14 A3023 RMK A01 T02820143  RH  043%=      5-min Rain = 0
KSB1 150312Z 09014KT 28/15 A3023 RMK A01 T02820145  RH  043%=      5-min Rain = 0
KSB1 150313Z 09013KT 28/15 A3023 RMK A01 T02820145  RH  043%=      5-min Rain = 0
KSB1 150314Z 10013KT 28/15 A3023 RMK A01 T02820146  RH  043%=      5-min Rain = 0
KSB1 150315Z 09012KT 28/15 A3024 RMK A01 T02820147  RH  044%=      5-min Rain = 0
KSB1 150316Z 10014KT 28/15 A3024 RMK A01 T02820148  RH  044%=      5-min Rain = 0
KSB1 150317Z 09011KT 28/15 A3024 RMK A01 T02820149  RH  044%=      5-min Rain = 0
KSB1 150318Z 09010KT 28/15 A3024 RMK A01 T02810149  RH  044%=      5-min Rain = 0
KSB1 150319Z 09010KT 28/15 A3024 RMK A01 T02810149  RH  044%=      5-min Rain = 0
KSB1 150320Z 10012KT 28/15 A3024 RMK A01 T02810150  RH  045%=      5-min Rain = 0
KSB1 150321Z 10011KT 28/15 A3024 RMK A01 T02800150  RH  045%=      5-min Rain = 0
KSB1 150322Z 10010KT 28/15 A3024 RMK A01 T02800150  RH  045%=      5-min Rain = 0
KSB1 150323Z 10010KT 28/15 A3024 RMK A01 T02800151  RH  045%=      5-min Rain = 0
KSB1 150324Z 10009KT 28/15 A3024 RMK A01 T02790152  RH  046%=      5-min Rain = 0
KSB1 150325Z 10009KT 28/15 A3024 RMK A01 T02780151  RH  046%=      5-min Rain = 0
KSB1 150326Z 10010KT 28/15 A3024 RMK A01 T02780152  RH  046%=      5-min Rain = 0
KSB1 150327Z 10010KT 28/15 A3024 RMK A01 T02770152  RH  046%=      5-min Rain = 0
KSB1 150328Z 10009KT 28/15 A3024 RMK A01 T02770153  RH  046%=      5-min Rain = 0
KSB1 150329Z 10011KT 28/15 A3024 RMK A01 T02780153  RH  047%=      5-min Rain = 0
KSB1 150330Z 09010KT 28/15 A3024 RMK A01 T02770153  RH  047%=      5-min Rain = 0
KSB1 150331Z 09008KT 28/15 A3024 RMK A01 T02770153  RH  047%=      5-min Rain = 0
KSB1 150332Z 09011KT 28/15 A3024 RMK A01 T02760154  RH  047%=      5-min Rain = 0
KSB1 150333Z 09009KT 28/16 A3024 RMK A01 T02760155  RH  047%=      5-min Rain = 0
KSB1 150334Z 09010KT 28/16 A3024 RMK A01 T02760155  RH  047%=      5-min Rain = 0
KSB1 150335Z 10011KT 28/16 A3024 RMK A01 T02760155  RH  048%=      5-min Rain = 0
KSB1 150336Z 10010KT 28/16 A3024 RMK A01 T02760156  RH  048%=      5-min Rain = 0
KSB1 150337Z 10011KT 28/16 A3024 RMK A01 T02760156  RH  048%=      5-min Rain = 0
KSB1 150338Z 11011KT 28/16 A3024 RMK A01 T02760156  RH  048%=      5-min Rain = 0
KSB1 150339Z 10012KT 28/16 A3024 RMK A01 T02760157  RH  048%=      5-min Rain = 0
KSB1 150340Z 10010KT 28/16 A3024 RMK A01 T02760157  RH  048%=      5-min Rain = 0
KSB1 150341Z 11010KT 28/16 A3024 RMK A01 T02760157  RH  048%=      5-min Rain = 0
KSB1 150342Z 10010KT 28/16 A3024 RMK A01 T02760158  RH  048%=      5-min Rain = 0
KSB1 150343Z 10010KT 28/16 A3024 RMK A01 T02760158  RH  048%=      5-min Rain = 0
KSB1 150344Z 10010KT 28/16 A3024 RMK A01 T02760158  RH  049%=      5-min Rain = 0
KSB1 150345Z 11011KT 28/16 A3024 RMK A01 T02750158  RH  049%=      5-min Rain = 0
KSB1 150346Z 11012KT 28/16 A3024 RMK A01 T02760158  RH  049%=      5-min Rain = 0
KSB1 150347Z 10010KT 28/16 A3024 RMK A01 T02750158  RH  049%=      5-min Rain = 0
KSB1 150348Z 10010KT 28/16 A3024 RMK A01 T02750158  RH  049%=      5-min Rain = 0
KSB1 150349Z 10012KT 28/16 A3024 RMK A01 T02750159  RH  049%=      5-min Rain = 0
KSB1 150350Z 10012KT 28/16 A3024 RMK A01 T02750159  RH  049%=      5-min Rain = 0
KSB1 150351Z 10009KT 28/16 A3024 RMK A01 T02750159  RH  049%=      5-min Rain = 0
KSB1 150352Z 10010KT 28/16 A3024 RMK A01 T02750159  RH  049%=      5-min Rain = 0
KSB1 150353Z 11012KT 27/16 A3024 RMK A01 T02740159  RH  049%=      5-min Rain = 0
KSB1 150354Z 10009KT 28/16 A3024 RMK A01 T02750160  RH  049%=      5-min Rain = 0
KSB1 150355Z 10009KT 27/16 A3024 RMK A01 T02740159  RH  049%=      5-min Rain = 0
KSB1 150356Z 10009KT 27/16 A3024 RMK A01 T02740159  RH  050%=      5-min Rain = 0
KSB1 150357Z 10008KT 27/16 A3024 RMK A01 T02730160  RH  050%=      5-min Rain = 0
KSB1 150358Z 10009KT 27/16 A3024 RMK A01 T02730160  RH  050%=      5-min Rain = 0
KSB1 150359Z 11009KT 27/16 A3024 RMK A01 T02730160  RH  050%=      5-min Rain = 0
KSB1 150400Z 10007KT 27/16 A3024 RMK A01 T02720160  RH  050%=      5-min Rain = 0
KSB1 150401Z 10008KT 27/16 A3024 RMK A01 T02720160  RH  050%=      5-min Rain = 0
KSB1 150402Z 10008KT 27/16 A3024 RMK A01 T02710160  RH  051%=      5-min Rain = 0
KSB1 150403Z 10008KT 27/16 A3024 RMK A01 T02710160  RH  051%=      5-min Rain = 0
KSB1 150404Z 11008KT 27/16 A3024 RMK A01 T02710160  RH  051%=      5-min Rain = 0
KSB1 150405Z 11008KT 27/16 A3024 RMK A01 T02710160  RH  051%=      5-min Rain = 0
KSB1 150406Z 11008KT 27/16 A3024 RMK A01 T02710160  RH  051%=      5-min Rain = 0
KSB1 150407Z 12007KT 27/16 A3024 RMK A01 T02710160  RH  051%=      5-min Rain = 0
KSB1 150408Z 12007KT 27/16 A3023 RMK A01 T02710160  RH  051%=      5-min Rain = 0
KSB1 150409Z 11007KT 27/16 A3023 RMK A01 T02700159  RH  051%=      5-min Rain = 0
KSB1 150410Z 12006KT 27/16 A3023 RMK A01 T02700159  RH  051%=      5-min Rain = 0
KSB1 150411Z 12006KT 27/16 A3023 RMK A01 T02700159  RH  051%=      5-min Rain = 0
KSB1 150412Z 12006KT 27/16 A3023 RMK A01 T02690159  RH  051%=      5-min Rain = 0
KSB1 150413Z 12006KT 27/16 A3023 RMK A01 T02690159  RH  051%=      5-min Rain = 0
KSB1 150414Z 13005KT 27/16 A3023 RMK A01 T02690159  RH  051%=      5-min Rain = 0
KSB1 150415Z 12005KT 27/16 A3023 RMK A01 T02680158  RH  051%=      5-min Rain = 0
KSB1 150416Z 13005KT 27/16 A3023 RMK A01 T02680158  RH  051%=      5-min Rain = 0
KSB1 150417Z 13006KT 27/16 A3023 RMK A01 T02670158  RH  051%=      5-min Rain = 0
KSB1 150418Z 13006KT 27/16 A3023 RMK A01 T02670158  RH  051%=      5-min Rain = 0
KSB1 150419Z 13007KT 27/16 A3023 RMK A01 T02670158  RH  051%=      5-min Rain = 0
KSB1 150420Z 12006KT 27/16 A3023 RMK A01 T02670158  RH  051%=      5-min Rain = 0
KSB1 150421Z 12006KT 27/16 A3023 RMK A01 T02670158  RH  051%=      5-min Rain = 0
KSB1 150422Z 12006KT 27/16 A3024 RMK A01 T02670158  RH  051%=      5-min Rain = 0
KSB1 150423Z 12007KT 27/16 A3024 RMK A01 T02670158  RH  051%=      5-min Rain = 0
KSB1 150424Z 12006KT 27/16 A3024 RMK A01 T02660158  RH  051%=      5-min Rain = 0
KSB1 150425Z 11005KT 27/16 A3024 RMK A01 T02660158  RH  051%=      5-min Rain = 0
KSB1 150426Z 11005KT 27/16 A3024 RMK A01 T02660158  RH  051%=      5-min Rain = 0
KSB1 150427Z 11004KT 27/16 A3024 RMK A01 T02650158  RH  052%=      5-min Rain = 0
KSB1 150428Z 11005KT 27/16 A3024 RMK A01 T02650158  RH  052%=      5-min Rain = 0
KSB1 150429Z 11005KT 26/16 A3024 RMK A01 T02640158  RH  052%=      5-min Rain = 0
KSB1 150430Z 10005KT 27/16 A3024 RMK A01 T02650158  RH  052%=      5-min Rain = 0
KSB1 150431Z 11005KT 26/16 A3024 RMK A01 T02640158  RH  052%=      5-min Rain = 0
KSB1 150432Z 10005KT 26/16 A3024 RMK A01 T02630158  RH  052%=      5-min Rain = 0
KSB1 150433Z 11006KT 26/16 A3024 RMK A01 T02630158  RH  052%=      5-min Rain = 0
KSB1 150434Z 10006KT 26/16 A3024 RMK A01 T02620158  RH  053%=      5-min Rain = 0
KSB1 150435Z 11006KT 26/16 A3024 RMK A01 T02620158  RH  053%=      5-min Rain = 0
KSB1 150436Z 11006KT 26/16 A3024 RMK A01 T02620159  RH  053%=      5-min Rain = 0
KSB1 150437Z 11006KT 26/16 A3024 RMK A01 T02610158  RH  053%=      5-min Rain = 0
KSB1 150438Z 10006KT 26/16 A3024 RMK A01 T02610158  RH  053%=      5-min Rain = 0
KSB1 150439Z 10006KT 26/16 A3024 RMK A01 T02610159  RH  053%=      5-min Rain = 0
KSB1 150440Z 10006KT 26/16 A3024 RMK A01 T02610159  RH  053%=      5-min Rain = 0
KSB1 150441Z 10006KT 26/16 A3024 RMK A01 T02610159  RH  053%=      5-min Rain = 0
KSB1 150442Z 10006KT 26/16 A3024 RMK A01 T02610159  RH  053%=      5-min Rain = 0
KSB1 150443Z 10006KT 26/16 A3024 RMK A01 T02600159  RH  054%=      5-min Rain = 0
KSB1 150444Z 10006KT 26/16 A3024 RMK A01 T02600159  RH  054%=      5-min Rain = 0
KSB1 150445Z 10006KT 26/16 A3024 RMK A01 T02600159  RH  054%=      5-min Rain = 0
KSB1 150446Z 10005KT 26/16 A3024 RMK A01 T02590159  RH  054%=      5-min Rain = 0
KSB1 150447Z 11005KT 26/16 A3024 RMK A01 T02580159  RH  054%=      5-min Rain = 0
KSB1 150448Z 11005KT 26/16 A3024 RMK A01 T02570159  RH  054%=      5-min Rain = 0
KSB1 150449Z 11004KT 26/16 A3024 RMK A01 T02570159  RH  055%=      5-min Rain = 0
KSB1 150450Z 11004KT 26/16 A3024 RMK A01 T02570159  RH  055%=      5-min Rain = 0
KSB1 150451Z 11004KT 26/16 A3024 RMK A01 T02560159  RH  055%=      5-min Rain = 0
KSB1 150452Z 11003KT 26/16 A3024 RMK A01 T02560159  RH  055%=      5-min Rain = 0
KSB1 150453Z 11003KT 26/16 A3025 RMK A01 T02560159  RH  055%=      5-min Rain = 0
KSB1 150454Z 11002KT 26/16 A3025 RMK A01 T02560159  RH  055%=      5-min Rain = 0
KSB1 150455Z 11002KT 26/16 A3025 RMK A01 T02550159  RH  055%=      5-min Rain = 0
KSB1 150456Z 12002KT 26/16 A3025 RMK A01 T02550159  RH  055%=      5-min Rain = 0
KSB1 150457Z 13001KT 26/16 A3025 RMK A01 T02550159  RH  055%=      5-min Rain = 0
KSB1 150458Z 22000KT 26/16 A3025 RMK A01 T02550159  RH  056%=      5-min Rain = 0
KSB1 150459Z 23002KT 25/16 A3025 RMK A01 T02540159  RH  055%=      5-min Rain = 0

Page generated in 0.0719 seconds.